PWSweather.com
Personal Weather Stations
Station Observations
KD5LEN
Ktxnorth1, North Richland Hills, TX 76180

Ktxnorth1North Richland Hills, TX 76180

Lat: 32.885294, Lon: -97.236048

Elevation: 694

Station Type: Vantage Pro 2

http://www.atzer0.net/VWS/root/index.htm

High Low Average
Temperature 76.5°F24.7°C 49.9°F9.9°C 67.3°F19.6°C
Dew Point 65.0°F18.3°C 46.2°F7.9°C 60.1°F15.6°C
Winds 26.0 mph 41.8 kmh Calm Calm 7.0 mph SSW11.3 kmh SSW
Wind Gusts 28.0 mph45.1 kmh 3.0 mph4.8 kmh 14.0 mph22.5 kmh
Humidity 88% 61% 78%
Pressure 29.93 in1013.5 mb 29.78 in1008.5 mb -
Precipitation 0.00 in0.0 mm - -
Hour Temp Dew Point Humidity Winds Wind Gusts Pressure Precip Precip Rate Daily Precip Total
12:00 AM 69.3°F20.7°C 62.2°F16.8°C 78% 6.0 mph S9.7 kmh S 17.0 mph27.4 kmh 29.85 in1010.8 mb 0.00 in0.0 mm 0.00 in0.0 mm 0.00 in0.0 mm
12:02 AM 69.3°F20.7°C 62.2°F16.8°C 78% 4.0 mph SE6.4 kmh SE 17.0 mph27.4 kmh 29.84 in1010.5 mb 0.00 in0.0 mm 0.00 in0.0 mm 0.00 in0.0 mm
12:04 AM 69.3°F20.7°C 62.2°F16.8°C 78% 9.0 mph SSE14.5 kmh SSE 11.0 mph17.7 kmh 29.84 in1010.5 mb 0.00 in0.0 mm 0.00 in0.0 mm 0.00 in0.0 mm
12:06 AM 69.4°F20.8°C 62.3°F16.8°C 78% 5.0 mph S8.0 kmh S 14.0 mph22.5 kmh 29.85 in1010.8 mb 0.00 in0.0 mm 0.00 in0.0 mm 0.00 in0.0 mm
12:08 AM 69.3°F20.7°C 62.2°F16.8°C 78% 3.0 mph S4.8 kmh S 14.0 mph22.5 kmh 29.85 in1010.8 mb 0.00 in0.0 mm 0.00 in0.0 mm 0.00 in0.0 mm
12:10 AM 69.3°F20.7°C 62.2°F16.8°C 78% 4.0 mph SSW6.4 kmh SSW 14.0 mph22.5 kmh 29.85 in1010.8 mb 0.00 in0.0 mm 0.00 in0.0 mm 0.00 in0.0 mm
12:12 AM 69.3°F20.7°C 62.2°F16.8°C 78% 7.0 mph SE11.3 kmh SE 14.0 mph22.5 kmh 29.85 in1010.8 mb 0.00 in0.0 mm 0.00 in0.0 mm 0.00 in0.0 mm
12:14 AM 69.3°F20.7°C 62.2°F16.8°C 78% 8.0 mph SSE12.9 kmh SSE 14.0 mph22.5 kmh 29.85 in1010.8 mb 0.00 in0.0 mm 0.00 in0.0 mm 0.00 in0.0 mm
12:16 AM 69.4°F20.8°C 62.3°F16.8°C 78% 3.0 mph S4.8 kmh S 14.0 mph22.5 kmh 29.85 in1010.8 mb 0.00 in0.0 mm 0.00 in0.0 mm 0.00 in0.0 mm
12:18 AM 69.4°F20.8°C 62.6°F17.0°C 79% 7.0 mph SE11.3 kmh SE 16.0 mph25.7 kmh 29.85 in1010.8 mb 0.00 in0.0 mm 0.00 in0.0 mm 0.00 in0.0 mm
12:20 AM 69.3°F20.7°C 62.5°F16.9°C 79% 6.0 mph S9.7 kmh S 16.0 mph25.7 kmh 29.85 in1010.8 mb 0.00 in0.0 mm 0.00 in0.0 mm 0.00 in0.0 mm
12:22 AM 69.5°F20.8°C 62.4°F16.9°C 78% 9.0 mph S14.5 kmh S 16.0 mph25.7 kmh 29.85 in1010.8 mb 0.00 in0.0 mm 0.00 in0.0 mm 0.00 in0.0 mm
12:24 AM 69.4°F20.8°C 62.3°F16.8°C 78% 5.0 mph SE8.0 kmh SE 16.0 mph25.7 kmh 29.85 in1010.8 mb 0.00 in0.0 mm 0.00 in0.0 mm 0.00 in0.0 mm
12:26 AM 69.5°F20.8°C 62.4°F16.9°C 78% 7.0 mph S11.3 kmh S 16.0 mph25.7 kmh 29.85 in1010.8 mb 0.00 in0.0 mm 0.00 in0.0 mm 0.00 in0.0 mm
12:28 AM 69.5°F20.8°C 62.4°F16.9°C 78% 13.0 mph SSE20.9 kmh SSE 16.0 mph25.7 kmh 29.85 in1010.8 mb 0.00 in0.0 mm 0.00 in0.0 mm 0.00 in0.0 mm
12:30 AM 69.6°F20.9°C 62.4°F16.9°C 78% 6.0 mph SSE9.7 kmh SSE 16.0 mph25.7 kmh 29.85 in1010.8 mb 0.00 in0.0 mm 0.00 in0.0 mm 0.00 in0.0 mm
12:32 AM 69.6°F20.9°C 62.4°F16.9°C 78% 12.0 mph S19.3 kmh S 16.0 mph25.7 kmh 29.85 in1010.8 mb 0.00 in0.0 mm 0.00 in0.0 mm 0.00 in0.0 mm
12:34 AM 69.6°F20.9°C 62.4°F16.9°C 78% 5.0 mph S8.0 kmh S 10.0 mph16.1 kmh 29.85 in1010.8 mb 0.00 in0.0 mm 0.00 in0.0 mm 0.00 in0.0 mm
12:36 AM 69.6°F20.9°C 62.4°F16.9°C 78% 8.0 mph SE12.9 kmh SE 14.0 mph22.5 kmh 29.85 in1010.8 mb 0.00 in0.0 mm 0.00 in0.0 mm 0.00 in0.0 mm
12:38 AM 69.6°F20.9°C 62.4°F16.9°C 78% 9.0 mph SE14.5 kmh SE 14.0 mph22.5 kmh 29.85 in1010.8 mb 0.00 in0.0 mm 0.00 in0.0 mm 0.00 in0.0 mm
12:40 AM 69.7°F20.9°C 62.5°F16.9°C 78% 8.0 mph SE12.9 kmh SE 14.0 mph22.5 kmh 29.85 in1010.8 mb 0.00 in0.0 mm 0.00 in0.0 mm 0.00 in0.0 mm
12:42 AM 69.7°F20.9°C 62.5°F16.9°C 78% 9.0 mph S14.5 kmh S 14.0 mph22.5 kmh 29.85 in1010.8 mb 0.00 in0.0 mm 0.00 in0.0 mm 0.00 in0.0 mm
12:44 AM 69.7°F20.9°C 62.5°F16.9°C 78% 11.0 mph SSE17.7 kmh SSE 16.0 mph25.7 kmh 29.85 in1010.8 mb 0.00 in0.0 mm 0.00 in0.0 mm 0.00 in0.0 mm
12:46 AM 69.8°F21.0°C 62.6°F17.0°C 78% 4.0 mph S6.4 kmh S 16.0 mph25.7 kmh 29.85 in1010.8 mb 0.00 in0.0 mm 0.00 in0.0 mm 0.00 in0.0 mm
12:48 AM 69.8°F21.0°C 62.6°F17.0°C 78% 6.0 mph SE9.7 kmh SE 16.0 mph25.7 kmh 29.85 in1010.8 mb 0.00 in0.0 mm 0.00 in0.0 mm 0.00 in0.0 mm
12:50 AM 69.8°F21.0°C 62.6°F17.0°C 78% 7.0 mph S11.3 kmh S 16.0 mph25.7 kmh 29.85 in1010.8 mb 0.00 in0.0 mm 0.00 in0.0 mm 0.00 in0.0 mm
12:52 AM 69.8°F21.0°C 62.6°F17.0°C 78% 9.0 mph SSE14.5 kmh SSE 16.0 mph25.7 kmh 29.85 in1010.8 mb 0.00 in0.0 mm 0.00 in0.0 mm 0.00 in0.0 mm
12:54 AM 69.8°F21.0°C 62.6°F17.0°C 78% 6.0 mph S9.7 kmh S 16.0 mph25.7 kmh 29.85 in1010.8 mb 0.00 in0.0 mm 0.00 in0.0 mm 0.00 in0.0 mm
12:56 AM 69.8°F21.0°C 62.6°F17.0°C 78% 7.0 mph S11.3 kmh S 16.0 mph25.7 kmh 29.85 in1010.8 mb 0.00 in0.0 mm 0.00 in0.0 mm 0.00 in0.0 mm
12:58 AM 69.7°F20.9°C 62.5°F16.9°C 78% 12.0 mph SSW19.3 kmh SSW 16.0 mph25.7 kmh 29.85 in1010.8 mb 0.00 in0.0 mm 0.00 in0.0 mm 0.00 in0.0 mm
01:00 AM 69.8°F21.0°C 62.6°F17.0°C 78% 5.0 mph S8.0 kmh S 18.0 mph29.0 kmh 29.85 in1010.8 mb 0.00 in0.0 mm 0.00 in0.0 mm 0.00 in0.0 mm
01:02 AM 69.8°F21.0°C 62.6°F17.0°C 78% 7.0 mph S11.3 kmh S 18.0 mph29.0 kmh 29.85 in1010.8 mb 0.00 in0.0 mm 0.00 in0.0 mm 0.00 in0.0 mm
01:04 AM 69.8°F21.0°C 62.6°F17.0°C 78% 7.0 mph S11.3 kmh S 12.0 mph19.3 kmh 29.85 in1010.8 mb 0.00 in0.0 mm 0.00 in0.0 mm 0.00 in0.0 mm
01:06 AM 69.8°F21.0°C 62.6°F17.0°C 78% 6.0 mph SSE9.7 kmh SSE 14.0 mph22.5 kmh 29.85 in1010.8 mb 0.00 in0.0 mm 0.00 in0.0 mm 0.00 in0.0 mm
01:08 AM 69.8°F21.0°C 62.6°F17.0°C 78% 9.0 mph S14.5 kmh S 14.0 mph22.5 kmh 29.85 in1010.8 mb 0.00 in0.0 mm 0.00 in0.0 mm 0.00 in0.0 mm
01:10 AM 69.9°F21.1°C 62.7°F17.1°C 78% 13.0 mph S20.9 kmh S 17.0 mph27.4 kmh 29.86 in1011.2 mb 0.00 in0.0 mm 0.00 in0.0 mm 0.00 in0.0 mm
01:12 AM 70.0°F21.1°C 62.8°F17.1°C 78% 8.0 mph S12.9 kmh S 17.0 mph27.4 kmh 29.86 in1011.2 mb 0.00 in0.0 mm 0.00 in0.0 mm 0.00 in0.0 mm
01:14 AM 70.0°F21.1°C 62.8°F17.1°C 78% 9.0 mph SSE14.5 kmh SSE 18.0 mph29.0 kmh 29.86 in1011.2 mb 0.00 in0.0 mm 0.00 in0.0 mm 0.00 in0.0 mm
01:16 AM 70.0°F21.1°C 62.8°F17.1°C 78% 8.0 mph SSW12.9 kmh SSW 18.0 mph29.0 kmh 29.86 in1011.2 mb 0.00 in0.0 mm 0.00 in0.0 mm 0.00 in0.0 mm
01:18 AM 70.1°F21.2°C 62.9°F17.2°C 78% 8.0 mph S12.9 kmh S 18.0 mph29.0 kmh 29.86 in1011.2 mb 0.00 in0.0 mm 0.00 in0.0 mm 0.00 in0.0 mm
01:20 AM 70.1°F21.2°C 62.9°F17.2°C 78% 10.0 mph SSW16.1 kmh SSW 18.0 mph29.0 kmh 29.86 in1011.2 mb 0.00 in0.0 mm 0.00 in0.0 mm 0.00 in0.0 mm
01:22 AM 70.1°F21.2°C 62.9°F17.2°C 78% 14.0 mph S22.5 kmh S 18.0 mph29.0 kmh 29.86 in1011.2 mb 0.00 in0.0 mm 0.00 in0.0 mm 0.00 in0.0 mm
01:24 AM 70.2°F21.2°C 63.0°F17.2°C 78% 13.0 mph SSE20.9 kmh SSE 18.0 mph29.0 kmh 29.86 in1011.2 mb 0.00 in0.0 mm 0.00 in0.0 mm 0.00 in0.0 mm
01:26 AM 70.2°F21.2°C 63.0°F17.2°C 78% 15.0 mph SSW24.1 kmh SSW 18.0 mph29.0 kmh 29.86 in1011.2 mb 0.00 in0.0 mm 0.00 in0.0 mm 0.00 in0.0 mm
01:28 AM 70.2°F21.2°C 63.0°F17.2°C 78% 7.0 mph SW11.3 kmh SW 18.0 mph29.0 kmh 29.86 in1011.2 mb 0.00 in0.0 mm 0.00 in0.0 mm 0.00 in0.0 mm
01:30 AM 70.2°F21.2°C 63.0°F17.2°C 78% 9.0 mph SSE14.5 kmh SSE 18.0 mph29.0 kmh 29.86 in1011.2 mb 0.00 in0.0 mm 0.00 in0.0 mm 0.00 in0.0 mm
01:32 AM 70.2°F21.2°C 63.0°F17.2°C 78% 10.0 mph S16.1 kmh S 18.0 mph29.0 kmh 29.86 in1011.2 mb 0.00 in0.0 mm 0.00 in0.0 mm 0.00 in0.0 mm
01:34 AM 70.1°F21.2°C 63.3°F17.4°C 79% 10.0 mph SSW16.1 kmh SSW 14.0 mph22.5 kmh 29.86 in1011.2 mb 0.00 in0.0 mm 0.00 in0.0 mm 0.00 in0.0 mm
01:36 AM 70.1°F21.2°C 63.3°F17.4°C 79% 9.0 mph S14.5 kmh S 18.0 mph29.0 kmh 29.85 in1010.8 mb 0.00 in0.0 mm 0.00 in0.0 mm 0.00 in0.0 mm
01:37 AM 70.2°F21.2°C 63.4°F17.4°C 79% 11.0 mph S17.7 kmh S 18.0 mph29.0 kmh 29.86 in1011.2 mb 0.00 in0.0 mm 0.00 in0.0 mm 0.00 in0.0 mm
01:40 AM 70.2°F21.2°C 63.4°F17.4°C 79% 9.0 mph SE14.5 kmh SE 18.0 mph29.0 kmh 29.86 in1011.2 mb 0.00 in0.0 mm 0.00 in0.0 mm 0.00 in0.0 mm
01:42 AM 70.2°F21.2°C 63.4°F17.4°C 79% 8.0 mph S12.9 kmh S 18.0 mph29.0 kmh 29.86 in1011.2 mb 0.00 in0.0 mm 0.00 in0.0 mm 0.00 in0.0 mm
01:44 AM 70.2°F21.2°C 63.0°F17.2°C 78% 13.0 mph S20.9 kmh S 18.0 mph29.0 kmh 29.86 in1011.2 mb 0.00 in0.0 mm 0.00 in0.0 mm 0.00 in0.0 mm
01:46 AM 70.2°F21.2°C 63.4°F17.4°C 79% 14.0 mph S22.5 kmh S 18.0 mph29.0 kmh 29.85 in1010.8 mb 0.00 in0.0 mm 0.00 in0.0 mm 0.00 in0.0 mm
01:48 AM 70.2°F21.2°C 63.4°F17.4°C 79% 7.0 mph SSW11.3 kmh SSW 18.0 mph29.0 kmh 29.86 in1011.2 mb 0.00 in0.0 mm 0.00 in0.0 mm 0.00 in0.0 mm
01:50 AM 70.2°F21.2°C 63.4°F17.4°C 79% 9.0 mph S14.5 kmh S 18.0 mph29.0 kmh 29.86 in1011.2 mb 0.00 in0.0 mm 0.00 in0.0 mm 0.00 in0.0 mm
01:52 AM 70.2°F21.2°C 63.4°F17.4°C 79% 15.0 mph S24.1 kmh S 18.0 mph29.0 kmh 29.86 in1011.2 mb 0.00 in0.0 mm 0.00 in0.0 mm 0.00 in0.0 mm
01:54 AM 70.2°F21.2°C 63.4°F17.4°C 79% 10.0 mph SSE16.1 kmh SSE 18.0 mph29.0 kmh 29.86 in1011.2 mb 0.00 in0.0 mm 0.00 in0.0 mm 0.00 in0.0 mm
01:56 AM 70.1°F21.2°C 63.3°F17.4°C 79% 10.0 mph S16.1 kmh S 20.0 mph32.2 kmh 29.86 in1011.2 mb 0.00 in0.0 mm 0.00 in0.0 mm 0.00 in0.0 mm
01:58 AM 70.1°F21.2°C 63.3°F17.4°C 79% 8.0 mph SE12.9 kmh SE 20.0 mph32.2 kmh 29.86 in1011.2 mb 0.00 in0.0 mm 0.00 in0.0 mm 0.00 in0.0 mm
02:00 AM 70.1°F21.2°C 63.3°F17.4°C 79% 12.0 mph S19.3 kmh S 20.0 mph32.2 kmh 29.86 in1011.2 mb 0.00 in0.0 mm 0.00 in0.0 mm 0.00 in0.0 mm
02:02 AM 69.9°F21.1°C 63.1°F17.3°C 79% 9.0 mph S14.5 kmh S 20.0 mph32.2 kmh 29.86 in1011.2 mb 0.00 in0.0 mm 0.00 in0.0 mm 0.00 in0.0 mm
02:04 AM 69.9°F21.1°C 63.1°F17.3°C 79% 12.0 mph S19.3 kmh S 13.0 mph20.9 kmh 29.86 in1011.2 mb 0.00 in0.0 mm 0.00 in0.0 mm 0.00 in0.0 mm
02:06 AM 69.9°F21.1°C 63.1°F17.3°C 79% 11.0 mph S17.7 kmh S 19.0 mph30.6 kmh 29.85 in1010.8 mb 0.00 in0.0 mm 0.00 in0.0 mm 0.00 in0.0 mm
02:08 AM 69.9°F21.1°C 63.1°F17.3°C 79% 11.0 mph SE17.7 kmh SE 21.0 mph33.8 kmh 29.85 in1010.8 mb 0.00 in0.0 mm 0.00 in0.0 mm 0.00 in0.0 mm
02:10 AM 69.8°F21.0°C 63.0°F17.2°C 79% 6.0 mph S9.7 kmh S 21.0 mph33.8 kmh 29.85 in1010.8 mb 0.00 in0.0 mm 0.00 in0.0 mm 0.00 in0.0 mm
02:12 AM 69.9°F21.1°C 63.1°F17.3°C 79% 9.0 mph SSW14.5 kmh SSW 21.0 mph33.8 kmh 29.85 in1010.8 mb 0.00 in0.0 mm 0.00 in0.0 mm 0.00 in0.0 mm
02:14 AM 69.8°F21.0°C 63.0°F17.2°C 79% 9.0 mph S14.5 kmh S 21.0 mph33.8 kmh 29.86 in1011.2 mb 0.00 in0.0 mm 0.00 in0.0 mm 0.00 in0.0 mm
02:16 AM 69.7°F20.9°C 62.9°F17.2°C 79% 7.0 mph SSW11.3 kmh SSW 21.0 mph33.8 kmh 29.85 in1010.8 mb 0.00 in0.0 mm 0.00 in0.0 mm 0.00 in0.0 mm
02:18 AM 69.6°F20.9°C 62.8°F17.1°C 79% 9.0 mph SSW14.5 kmh SSW 21.0 mph33.8 kmh 29.86 in1011.2 mb 0.00 in0.0 mm 0.00 in0.0 mm 0.00 in0.0 mm
02:20 AM 69.6°F20.9°C 63.2°F17.3°C 80% 9.0 mph SSE14.5 kmh SSE 21.0 mph33.8 kmh 29.85 in1010.8 mb 0.00 in0.0 mm 0.00 in0.0 mm 0.00 in0.0 mm
02:22 AM 69.6°F20.9°C 63.2°F17.3°C 80% 11.0 mph SSW17.7 kmh SSW 21.0 mph33.8 kmh 29.86 in1011.2 mb 0.00 in0.0 mm 0.00 in0.0 mm 0.00 in0.0 mm
02:24 AM 69.6°F20.9°C 63.2°F17.3°C 80% 9.0 mph S14.5 kmh S 21.0 mph33.8 kmh 29.85 in1010.8 mb 0.00 in0.0 mm 0.00 in0.0 mm 0.00 in0.0 mm
02:26 AM 69.6°F20.9°C 63.2°F17.3°C 80% 8.0 mph S12.9 kmh S 21.0 mph33.8 kmh 29.85 in1010.8 mb 0.00 in0.0 mm 0.00 in0.0 mm 0.00 in0.0 mm
02:28 AM 69.6°F20.9°C 63.2°F17.3°C 80% 8.0 mph SE12.9 kmh SE 21.0 mph33.8 kmh 29.85 in1010.8 mb 0.00 in0.0 mm 0.00 in0.0 mm 0.00 in0.0 mm
02:30 AM 69.6°F20.9°C 63.2°F17.3°C 80% 10.0 mph SSE16.1 kmh SSE 21.0 mph33.8 kmh 29.86 in1011.2 mb 0.00 in0.0 mm 0.00 in0.0 mm 0.00 in0.0 mm
02:32 AM 69.6°F20.9°C 63.2°F17.3°C 80% 14.0 mph S22.5 kmh S 21.0 mph33.8 kmh 29.86 in1011.2 mb 0.00 in0.0 mm 0.00 in0.0 mm 0.00 in0.0 mm
02:34 AM 69.5°F20.8°C 63.1°F17.3°C 80% 5.0 mph SSW8.0 kmh SSW 20.0 mph32.2 kmh 29.86 in1011.2 mb 0.00 in0.0 mm 0.00 in0.0 mm 0.00 in0.0 mm
02:36 AM 69.6°F20.9°C 63.2°F17.3°C 80% 5.0 mph SE8.0 kmh SE 20.0 mph32.2 kmh 29.86 in1011.2 mb 0.00 in0.0 mm 0.00 in0.0 mm 0.00 in0.0 mm
02:38 AM 69.6°F20.9°C 63.2°F17.3°C 80% 11.0 mph S17.7 kmh S 20.0 mph32.2 kmh 29.85 in1010.8 mb 0.00 in0.0 mm 0.00 in0.0 mm 0.00 in0.0 mm
02:40 AM 69.5°F20.8°C 63.1°F17.3°C 80% 14.0 mph SSW22.5 kmh SSW 20.0 mph32.2 kmh 29.85 in1010.8 mb 0.00 in0.0 mm 0.00 in0.0 mm 0.00 in0.0 mm
02:42 AM 69.5°F20.8°C 63.1°F17.3°C 80% 7.0 mph SSE11.3 kmh SSE 20.0 mph32.2 kmh 29.86 in1011.2 mb 0.00 in0.0 mm 0.00 in0.0 mm 0.00 in0.0 mm
02:44 AM 69.5°F20.8°C 63.1°F17.3°C 80% 19.0 mph S30.6 kmh S 20.0 mph32.2 kmh 29.85 in1010.8 mb 0.00 in0.0 mm 0.00 in0.0 mm 0.00 in0.0 mm
02:46 AM 69.5°F20.8°C 63.1°F17.3°C 80% 10.0 mph S16.1 kmh S 20.0 mph32.2 kmh 29.86 in1011.2 mb 0.00 in0.0 mm 0.00 in0.0 mm 0.00 in0.0 mm
02:48 AM 69.4°F20.8°C 63.0°F17.2°C 80% 6.0 mph SE9.7 kmh SE 20.0 mph32.2 kmh 29.85 in1010.8 mb 0.00 in0.0 mm 0.00 in0.0 mm 0.00 in0.0 mm
02:50 AM 69.4°F20.8°C 63.0°F17.2°C 80% 8.0 mph S12.9 kmh S 20.0 mph32.2 kmh 29.86 in1011.2 mb 0.00 in0.0 mm 0.00 in0.0 mm 0.00 in0.0 mm
02:52 AM 69.4°F20.8°C 63.0°F17.2°C 80% 11.0 mph SW17.7 kmh SW 20.0 mph32.2 kmh 29.85 in1010.8 mb 0.00 in0.0 mm 0.00 in0.0 mm 0.00 in0.0 mm
02:54 AM 69.3°F20.7°C 62.9°F17.2°C 80% 4.0 mph S6.4 kmh S 20.0 mph32.2 kmh 29.85 in1010.8 mb 0.00 in0.0 mm 0.00 in0.0 mm 0.00 in0.0 mm
02:56 AM 69.3°F20.7°C 62.9°F17.2°C 80% 7.0 mph SE11.3 kmh SE 20.0 mph32.2 kmh 29.85 in1010.8 mb 0.00 in0.0 mm 0.00 in0.0 mm 0.00 in0.0 mm
02:58 AM 69.2°F20.7°C 62.8°F17.1°C 80% 5.0 mph S8.0 kmh S 20.0 mph32.2 kmh 29.85 in1010.8 mb 0.00 in0.0 mm 0.00 in0.0 mm 0.00 in0.0 mm
03:00 AM 69.2°F20.7°C 62.8°F17.1°C 80% 17.0 mph S27.4 kmh S 20.0 mph32.2 kmh 29.85 in1010.8 mb 0.00 in0.0 mm 0.00 in0.0 mm 0.00 in0.0 mm
03:02 AM 69.2°F20.7°C 63.1°F17.3°C 81% 6.0 mph SSE9.7 kmh SSE 20.0 mph32.2 kmh 29.85 in1010.8 mb 0.00 in0.0 mm 0.00 in0.0 mm 0.00 in0.0 mm
03:04 AM 69.2°F20.7°C 63.1°F17.3°C 81% 6.0 mph SW9.7 kmh SW 15.0 mph24.1 kmh 29.85 in1010.8 mb 0.00 in0.0 mm 0.00 in0.0 mm 0.00 in0.0 mm
03:06 AM 69.1°F20.6°C 63.0°F17.2°C 81% 8.0 mph SE12.9 kmh SE 19.0 mph30.6 kmh 29.85 in1010.8 mb 0.00 in0.0 mm 0.00 in0.0 mm 0.00 in0.0 mm
03:08 AM 69.1°F20.6°C 63.0°F17.2°C 81% 14.0 mph S22.5 kmh S 19.0 mph30.6 kmh 29.85 in1010.8 mb 0.00 in0.0 mm 0.00 in0.0 mm 0.00 in0.0 mm
03:10 AM 69.1°F20.6°C 63.0°F17.2°C 81% 10.0 mph S16.1 kmh S 19.0 mph30.6 kmh 29.85 in1010.8 mb 0.00 in0.0 mm 0.00 in0.0 mm 0.00 in0.0 mm
03:12 AM 69.1°F20.6°C 63.0°F17.2°C 81% 3.0 mph SE4.8 kmh SE 19.0 mph30.6 kmh 29.85 in1010.8 mb 0.00 in0.0 mm 0.00 in0.0 mm 0.00 in0.0 mm
03:14 AM 69.0°F20.6°C 62.9°F17.2°C 81% 4.0 mph S6.4 kmh S 19.0 mph30.6 kmh 29.85 in1010.8 mb 0.00 in0.0 mm 0.00 in0.0 mm 0.00 in0.0 mm
03:15 AM 68.9°F20.5°C 62.8°F17.1°C 81% 7.0 mph SSW11.3 kmh SSW 19.0 mph30.6 kmh 29.85 in1010.8 mb 0.00 in0.0 mm 0.00 in0.0 mm 0.00 in0.0 mm
03:18 AM 68.9°F20.5°C 62.8°F17.1°C 81% 2.0 mph SSW3.2 kmh SSW 19.0 mph30.6 kmh 29.85 in1010.8 mb 0.00 in0.0 mm 0.00 in0.0 mm 0.00 in0.0 mm
03:20 AM 68.8°F20.4°C 62.7°F17.1°C 81% 7.0 mph SSW11.3 kmh SSW 19.0 mph30.6 kmh 29.85 in1010.8 mb 0.00 in0.0 mm 0.00 in0.0 mm 0.00 in0.0 mm
03:22 AM 68.8°F20.4°C 62.7°F17.1°C 81% 6.0 mph SSE9.7 kmh SSE 19.0 mph30.6 kmh 29.85 in1010.8 mb 0.00 in0.0 mm 0.00 in0.0 mm 0.00 in0.0 mm
03:24 AM 68.7°F20.4°C 62.6°F17.0°C 81% 11.0 mph S17.7 kmh S 19.0 mph30.6 kmh 29.85 in1010.8 mb 0.00 in0.0 mm 0.00 in0.0 mm 0.00 in0.0 mm
03:26 AM 68.6°F20.3°C 62.5°F16.9°C 81% 7.0 mph S11.3 kmh S 19.0 mph30.6 kmh 29.85 in1010.8 mb 0.00 in0.0 mm 0.00 in0.0 mm 0.00 in0.0 mm
03:28 AM 68.6°F20.3°C 62.5°F16.9°C 81% 12.0 mph S19.3 kmh S 19.0 mph30.6 kmh 29.85 in1010.8 mb 0.00 in0.0 mm 0.00 in0.0 mm 0.00 in0.0 mm
03:30 AM 68.6°F20.3°C 62.5°F16.9°C 81% 12.0 mph S19.3 kmh S 19.0 mph30.6 kmh 29.85 in1010.8 mb 0.00 in0.0 mm 0.00 in0.0 mm 0.00 in0.0 mm
03:32 AM 68.5°F20.3°C 62.8°F17.1°C 82% 11.0 mph S17.7 kmh S 19.0 mph30.6 kmh 29.85 in1010.8 mb 0.00 in0.0 mm 0.00 in0.0 mm 0.00 in0.0 mm
03:34 AM 68.5°F20.3°C 62.8°F17.1°C 82% 4.0 mph SE6.4 kmh SE 12.0 mph19.3 kmh 29.85 in1010.8 mb 0.00 in0.0 mm 0.00 in0.0 mm 0.00 in0.0 mm
03:36 AM 68.4°F20.2°C 62.7°F17.1°C 82% 10.0 mph S16.1 kmh S 12.0 mph19.3 kmh 29.85 in1010.8 mb 0.00 in0.0 mm 0.00 in0.0 mm 0.00 in0.0 mm
03:38 AM 68.3°F20.2°C 62.6°F17.0°C 82% 4.0 mph S6.4 kmh S 12.0 mph19.3 kmh 29.85 in1010.8 mb 0.00 in0.0 mm 0.00 in0.0 mm 0.00 in0.0 mm
03:40 AM 68.3°F20.2°C 62.6°F17.0°C 82% 15.0 mph S24.1 kmh S 15.0 mph24.1 kmh 29.85 in1010.8 mb 0.00 in0.0 mm 0.00 in0.0 mm 0.00 in0.0 mm
03:42 AM 68.2°F20.1°C 62.5°F16.9°C 82% 13.0 mph ESE20.9 kmh ESE 15.0 mph24.1 kmh 29.85 in1010.8 mb 0.00 in0.0 mm 0.00 in0.0 mm 0.00 in0.0 mm
03:44 AM 68.3°F20.2°C 62.9°F17.2°C 83% 7.0 mph S11.3 kmh S 15.0 mph24.1 kmh 29.85 in1010.8 mb 0.00 in0.0 mm 0.00 in0.0 mm 0.00 in0.0 mm
03:46 AM 68.2°F20.1°C 62.9°F17.2°C 83% 10.0 mph S16.1 kmh S 17.0 mph27.4 kmh 29.85 in1010.8 mb 0.00 in0.0 mm 0.00 in0.0 mm 0.00 in0.0 mm
03:48 AM 68.2°F20.1°C 62.5°F16.9°C 82% 4.0 mph SE6.4 kmh SE 17.0 mph27.4 kmh 29.85 in1010.8 mb 0.00 in0.0 mm 0.00 in0.0 mm 0.00 in0.0 mm
03:50 AM 68.2°F20.1°C 62.9°F17.2°C 83% 8.0 mph SSE12.9 kmh SSE 17.0 mph27.4 kmh 29.85 in1010.8 mb 0.00 in0.0 mm 0.00 in0.0 mm 0.00 in0.0 mm
03:52 AM 68.2°F20.1°C 62.9°F17.2°C 83% 5.0 mph SSE8.0 kmh SSE 17.0 mph27.4 kmh 29.85 in1010.8 mb 0.00 in0.0 mm 0.00 in0.0 mm 0.00 in0.0 mm
03:54 AM 68.1°F20.1°C 62.8°F17.1°C 83% 12.0 mph S19.3 kmh S 17.0 mph27.4 kmh 29.85 in1010.8 mb 0.00 in0.0 mm 0.00 in0.0 mm 0.00 in0.0 mm
03:56 AM 68.0°F20.0°C 62.7°F17.1°C 83% 6.0 mph S9.7 kmh S 17.0 mph27.4 kmh 29.85 in1010.8 mb 0.00 in0.0 mm 0.00 in0.0 mm 0.00 in0.0 mm
03:58 AM 68.0°F20.0°C 62.7°F17.1°C 83% 5.0 mph SE8.0 kmh SE 17.0 mph27.4 kmh 29.85 in1010.8 mb 0.00 in0.0 mm 0.00 in0.0 mm 0.00 in0.0 mm
04:00 AM 67.9°F19.9°C 62.6°F17.0°C 83% 4.0 mph S6.4 kmh S 17.0 mph27.4 kmh 29.85 in1010.8 mb 0.00 in0.0 mm 0.00 in0.0 mm 0.00 in0.0 mm
04:02 AM 67.9°F19.9°C 62.6°F17.0°C 83% 11.0 mph SSE17.7 kmh SSE 17.0 mph27.4 kmh 29.85 in1010.8 mb 0.00 in0.0 mm 0.00 in0.0 mm 0.00 in0.0 mm
04:04 AM 67.8°F19.9°C 62.5°F16.9°C 83% 5.0 mph SE8.0 kmh SE 7.0 mph11.3 kmh 29.85 in1010.8 mb 0.00 in0.0 mm 0.00 in0.0 mm 0.00 in0.0 mm
04:06 AM 67.8°F19.9°C 62.5°F16.9°C 83% 12.0 mph S19.3 kmh S 12.0 mph19.3 kmh 29.85 in1010.8 mb 0.00 in0.0 mm 0.00 in0.0 mm 0.00 in0.0 mm
04:08 AM 67.8°F19.9°C 62.5°F16.9°C 83% 7.0 mph S11.3 kmh S 12.0 mph19.3 kmh 29.85 in1010.8 mb 0.00 in0.0 mm 0.00 in0.0 mm 0.00 in0.0 mm
04:10 AM 67.7°F19.8°C 62.4°F16.9°C 83% 7.0 mph S11.3 kmh S 12.0 mph19.3 kmh 29.85 in1010.8 mb 0.00 in0.0 mm 0.00 in0.0 mm 0.00 in0.0 mm
04:12 AM 67.7°F19.8°C 62.4°F16.9°C 83% 6.0 mph S9.7 kmh S 12.0 mph19.3 kmh 29.85 in1010.8 mb 0.00 in0.0 mm 0.00 in0.0 mm 0.00 in0.0 mm
04:14 AM 67.7°F19.8°C 62.7°F17.1°C 84% 6.0 mph S9.7 kmh S 12.0 mph19.3 kmh 29.85 in1010.8 mb 0.00 in0.0 mm 0.00 in0.0 mm 0.00 in0.0 mm
04:16 AM 67.7°F19.8°C 62.7°F17.1°C 84% 7.0 mph SSE11.3 kmh SSE 12.0 mph19.3 kmh 29.85 in1010.8 mb 0.00 in0.0 mm 0.00 in0.0 mm 0.00 in0.0 mm
04:18 AM 67.6°F19.8°C 62.6°F17.0°C 84% 5.0 mph SSW8.0 kmh SSW 12.0 mph19.3 kmh 29.85 in1010.8 mb 0.00 in0.0 mm 0.00 in0.0 mm 0.00 in0.0 mm
04:20 AM 67.6°F19.8°C 62.6°F17.0°C 84% 6.0 mph SSE9.7 kmh SSE 12.0 mph19.3 kmh 29.85 in1010.8 mb 0.00 in0.0 mm 0.00 in0.0 mm 0.00 in0.0 mm
04:22 AM 67.6°F19.8°C 62.6°F17.0°C 84% 7.0 mph S11.3 kmh S 12.0 mph19.3 kmh 29.85 in1010.8 mb 0.00 in0.0 mm 0.00 in0.0 mm 0.00 in0.0 mm
04:24 AM 67.5°F19.7°C 62.5°F16.9°C 84% 8.0 mph SE12.9 kmh SE 12.0 mph19.3 kmh 29.85 in1010.8 mb 0.00 in0.0 mm 0.00 in0.0 mm 0.00 in0.0 mm
04:26 AM 67.5°F19.7°C 62.5°F16.9°C 84% 7.0 mph SSE11.3 kmh SSE 12.0 mph19.3 kmh 29.85 in1010.8 mb 0.00 in0.0 mm 0.00 in0.0 mm 0.00 in0.0 mm
04:28 AM 67.4°F19.7°C 62.4°F16.9°C 84% 4.0 mph S6.4 kmh S 12.0 mph19.3 kmh 29.85 in1010.8 mb 0.00 in0.0 mm 0.00 in0.0 mm 0.00 in0.0 mm
04:30 AM 67.4°F19.7°C 62.4°F16.9°C 84% 4.0 mph SE6.4 kmh SE 12.0 mph19.3 kmh 29.85 in1010.8 mb 0.00 in0.0 mm 0.00 in0.0 mm 0.00 in0.0 mm
04:32 AM 67.4°F19.7°C 62.4°F16.9°C 84% 3.0 mph SSE4.8 kmh SSE 12.0 mph19.3 kmh 29.85 in1010.8 mb 0.00 in0.0 mm 0.00 in0.0 mm 0.00 in0.0 mm
04:34 AM 67.4°F19.7°C 62.4°F16.9°C 84% 7.0 mph SSE11.3 kmh SSE 11.0 mph17.7 kmh 29.85 in1010.8 mb 0.00 in0.0 mm 0.00 in0.0 mm 0.00 in0.0 mm
04:36 AM 67.3°F19.6°C 62.3°F16.8°C 84% 5.0 mph S8.0 kmh S 11.0 mph17.7 kmh 29.85 in1010.8 mb 0.00 in0.0 mm 0.00 in0.0 mm 0.00 in0.0 mm
04:38 AM 67.2°F19.6°C 62.2°F16.8°C 84% 5.0 mph S8.0 kmh S 11.0 mph17.7 kmh 29.85 in1010.8 mb 0.00 in0.0 mm 0.00 in0.0 mm 0.00 in0.0 mm
04:40 AM 67.3°F19.6°C 62.6°F17.0°C 85% 4.0 mph SSE6.4 kmh SSE 11.0 mph17.7 kmh 29.85 in1010.8 mb 0.00 in0.0 mm 0.00 in0.0 mm 0.00 in0.0 mm
04:42 AM 67.2°F19.6°C 62.5°F16.9°C 85% 9.0 mph S14.5 kmh S 13.0 mph20.9 kmh 29.85 in1010.8 mb 0.00 in0.0 mm 0.00 in0.0 mm 0.00 in0.0 mm
04:44 AM 67.2°F19.6°C 62.5°F16.9°C 85% 7.0 mph SSW11.3 kmh SSW 13.0 mph20.9 kmh 29.85 in1010.8 mb 0.00 in0.0 mm 0.00 in0.0 mm 0.00 in0.0 mm
04:46 AM 67.2°F19.6°C 62.5°F16.9°C 85% 3.0 mph SSE4.8 kmh SSE 13.0 mph20.9 kmh 29.85 in1010.8 mb 0.00 in0.0 mm 0.00 in0.0 mm 0.00 in0.0 mm
04:48 AM 67.1°F19.5°C 62.5°F16.9°C 85% 7.0 mph S11.3 kmh S 13.0 mph20.9 kmh 29.85 in1010.8 mb 0.00 in0.0 mm 0.00 in0.0 mm 0.00 in0.0 mm
04:50 AM 67.1°F19.5°C 62.5°F16.9°C 85% 7.0 mph S11.3 kmh S 13.0 mph20.9 kmh 29.85 in1010.8 mb 0.00 in0.0 mm 0.00 in0.0 mm 0.00 in0.0 mm
04:52 AM 67.1°F19.5°C 62.5°F16.9°C 85% 6.0 mph SSE9.7 kmh SSE 13.0 mph20.9 kmh 29.85 in1010.8 mb 0.00 in0.0 mm 0.00 in0.0 mm 0.00 in0.0 mm
04:54 AM 67.0°F19.4°C 62.4°F16.9°C 85% 7.0 mph SSE11.3 kmh SSE 13.0 mph20.9 kmh 29.85 in1010.8 mb 0.00 in0.0 mm 0.00 in0.0 mm 0.00 in0.0 mm
04:56 AM 67.0°F19.4°C 62.4°F16.9°C 85% 6.0 mph SSE9.7 kmh SSE 13.0 mph20.9 kmh 29.85 in1010.8 mb 0.00 in0.0 mm 0.00 in0.0 mm 0.00 in0.0 mm
04:58 AM 67.0°F19.4°C 62.4°F16.9°C 85% 2.0 mph SE3.2 kmh SE 13.0 mph20.9 kmh 29.85 in1010.8 mb 0.00 in0.0 mm 0.00 in0.0 mm 0.00 in0.0 mm
05:00 AM 66.9°F19.4°C 62.3°F16.8°C 85% 3.0 mph SSE4.8 kmh SSE 13.0 mph20.9 kmh 29.85 in1010.8 mb 0.00 in0.0 mm 0.00 in0.0 mm 0.00 in0.0 mm
05:02 AM 66.9°F19.4°C 62.3°F16.8°C 85% 7.0 mph S11.3 kmh S 13.0 mph20.9 kmh 29.85 in1010.8 mb 0.00 in0.0 mm 0.00 in0.0 mm 0.00 in0.0 mm
05:04 AM 66.9°F19.4°C 62.3°F16.8°C 85% 3.0 mph S4.8 kmh S 7.0 mph11.3 kmh 29.85 in1010.8 mb 0.00 in0.0 mm 0.00 in0.0 mm 0.00 in0.0 mm
05:06 AM 66.8°F19.3°C 62.2°F16.8°C 85% 4.0 mph SSW6.4 kmh SSW 10.0 mph16.1 kmh 29.85 in1010.8 mb 0.00 in0.0 mm 0.00 in0.0 mm 0.00 in0.0 mm
05:07 AM 66.8°F19.3°C 62.2°F16.8°C 85% 6.0 mph S9.7 kmh S 10.0 mph16.1 kmh 29.85 in1010.8 mb 0.00 in0.0 mm 0.00 in0.0 mm 0.00 in0.0 mm
05:10 AM 66.8°F19.3°C 62.2°F16.8°C 85% 7.0 mph SE11.3 kmh SE 10.0 mph16.1 kmh 29.85 in1010.8 mb 0.00 in0.0 mm 0.00 in0.0 mm 0.00 in0.0 mm
05:12 AM 66.7°F19.3°C 62.1°F16.7°C 85% 4.0 mph SE6.4 kmh SE 10.0 mph16.1 kmh 29.85 in1010.8 mb 0.00 in0.0 mm 0.00 in0.0 mm 0.00 in0.0 mm
05:14 AM 66.7°F19.3°C 62.1°F16.7°C 85% 5.0 mph S8.0 kmh S 10.0 mph16.1 kmh 29.85 in1010.8 mb 0.00 in0.0 mm 0.00 in0.0 mm 0.00 in0.0 mm
05:16 AM 66.6°F19.2°C 62.0°F16.7°C 85% 4.0 mph SE6.4 kmh SE 10.0 mph16.1 kmh 29.85 in1010.8 mb 0.00 in0.0 mm 0.00 in0.0 mm 0.00 in0.0 mm
05:18 AM 66.6°F19.2°C 62.0°F16.7°C 85% 6.0 mph S9.7 kmh S 10.0 mph16.1 kmh 29.85 in1010.8 mb 0.00 in0.0 mm 0.00 in0.0 mm 0.00 in0.0 mm
05:20 AM 66.6°F19.2°C 62.0°F16.7°C 85% 4.0 mph SE6.4 kmh SE 10.0 mph16.1 kmh 29.85 in1010.8 mb 0.00 in0.0 mm 0.00 in0.0 mm 0.00 in0.0 mm
05:22 AM 66.6°F19.2°C 62.3°F16.8°C 86% 4.0 mph ESE6.4 kmh ESE 10.0 mph16.1 kmh 29.85 in1010.8 mb 0.00 in0.0 mm 0.00 in0.0 mm 0.00 in0.0 mm
05:24 AM 66.6°F19.2°C 62.3°F16.8°C 86% 2.0 mph SE3.2 kmh SE 10.0 mph16.1 kmh 29.85 in1010.8 mb 0.00 in0.0 mm 0.00 in0.0 mm 0.00 in0.0 mm
05:26 AM 66.6°F19.2°C 62.3°F16.8°C 86% 4.0 mph SSE6.4 kmh SSE 10.0 mph16.1 kmh 29.85 in1010.8 mb 0.00 in0.0 mm 0.00 in0.0 mm 0.00 in0.0 mm
05:28 AM 66.6°F19.2°C 62.3°F16.8°C 86% 4.0 mph SE6.4 kmh SE 10.0 mph16.1 kmh 29.85 in1010.8 mb 0.00 in0.0 mm 0.00 in0.0 mm 0.00 in0.0 mm
05:30 AM 66.5°F19.2°C 62.2°F16.8°C 86% 1.0 mph S1.6 kmh S 10.0 mph16.1 kmh 29.85 in1010.8 mb 0.00 in0.0 mm 0.00 in0.0 mm 0.00 in0.0 mm
05:32 AM 66.6°F19.2°C 62.3°F16.8°C 86% 5.0 mph SE8.0 kmh SE 10.0 mph16.1 kmh 29.85 in1010.8 mb 0.00 in0.0 mm 0.00 in0.0 mm 0.00 in0.0 mm
05:34 AM 66.6°F19.2°C 62.3°F16.8°C 86% 6.0 mph E9.7 kmh E 9.0 mph14.5 kmh 29.86 in1011.2 mb 0.00 in0.0 mm 0.00 in0.0 mm 0.00 in0.0 mm
05:36 AM 66.6°F19.2°C 62.3°F16.8°C 86% 7.0 mph SSE11.3 kmh SSE 10.0 mph16.1 kmh 29.85 in1010.8 mb 0.00 in0.0 mm 0.00 in0.0 mm 0.00 in0.0 mm
05:37 AM 66.5°F19.2°C 62.2°F16.8°C 86% 6.0 mph S9.7 kmh S 10.0 mph16.1 kmh 29.86 in1011.2 mb 0.00 in0.0 mm 0.00 in0.0 mm 0.00 in0.0 mm
05:39 AM 66.5°F19.2°C 62.2°F16.8°C 86% 2.0 mph S3.2 kmh S 10.0 mph16.1 kmh 29.86 in1011.2 mb 0.00 in0.0 mm 0.00 in0.0 mm 0.00 in0.0 mm
05:42 AM 66.5°F19.2°C 62.2°F16.8°C 86% 7.0 mph SSE11.3 kmh SSE 10.0 mph16.1 kmh 29.86 in1011.2 mb 0.00 in0.0 mm 0.00 in0.0 mm 0.00 in0.0 mm
05:44 AM 66.5°F19.2°C 62.2°F16.8°C 86% 2.0 mph SSE3.2 kmh SSE 10.0 mph16.1 kmh 29.86 in1011.2 mb 0.00 in0.0 mm 0.00 in0.0 mm 0.00 in0.0 mm
05:45 AM 66.5°F19.2°C 62.2°F16.8°C 86% 9.0 mph SSE14.5 kmh SSE 10.0 mph16.1 kmh 29.86 in1011.2 mb 0.00 in0.0 mm 0.00 in0.0 mm 0.00 in0.0 mm
05:48 AM 66.5°F19.2°C 62.2°F16.8°C 86% 2.0 mph SE3.2 kmh SE 10.0 mph16.1 kmh 29.86 in1011.2 mb 0.00 in0.0 mm 0.00 in0.0 mm 0.00 in0.0 mm
05:50 AM 66.5°F19.2°C 62.2°F16.8°C 86% 2.0 mph S3.2 kmh S 10.0 mph16.1 kmh 29.86 in1011.2 mb 0.00 in0.0 mm 0.00 in0.0 mm 0.00 in0.0 mm
05:52 AM 66.4°F19.1°C 62.1°F16.7°C 86% 5.0 mph SE8.0 kmh SE 10.0 mph16.1 kmh 29.86 in1011.2 mb 0.00 in0.0 mm 0.00 in0.0 mm 0.00 in0.0 mm
05:54 AM 66.4°F19.1°C 62.1°F16.7°C 86% 5.0 mph SE8.0 kmh SE 10.0 mph16.1 kmh 29.86 in1011.2 mb 0.00 in0.0 mm 0.00 in0.0 mm 0.00 in0.0 mm
05:56 AM 66.4°F19.1°C 62.1°F16.7°C 86% 8.0 mph ESE12.9 kmh ESE 10.0 mph16.1 kmh 29.86 in1011.2 mb 0.00 in0.0 mm 0.00 in0.0 mm 0.00 in0.0 mm
05:58 AM 66.4°F19.1°C 62.1°F16.7°C 86% 3.0 mph SE4.8 kmh SE 10.0 mph16.1 kmh 29.86 in1011.2 mb 0.00 in0.0 mm 0.00 in0.0 mm 0.00 in0.0 mm
06:00 AM 66.4°F19.1°C 62.1°F16.7°C 86% 4.0 mph SE6.4 kmh SE 10.0 mph16.1 kmh 29.86 in1011.2 mb 0.00 in0.0 mm 0.00 in0.0 mm 0.00 in0.0 mm
06:02 AM 66.4°F19.1°C 62.1°F16.7°C 86% 6.0 mph SSE9.7 kmh SSE 11.0 mph17.7 kmh 29.86 in1011.2 mb 0.00 in0.0 mm 0.00 in0.0 mm 0.00 in0.0 mm
06:04 AM 66.4°F19.1°C 62.1°F16.7°C 86% 3.0 mph SE4.8 kmh SE 9.0 mph14.5 kmh 29.86 in1011.2 mb 0.00 in0.0 mm 0.00 in0.0 mm 0.00 in0.0 mm
06:06 AM 66.3°F19.1°C 62.0°F16.7°C 86% 6.0 mph E9.7 kmh E 9.0 mph14.5 kmh 29.86 in1011.2 mb 0.00 in0.0 mm 0.00 in0.0 mm 0.00 in0.0 mm
06:08 AM 66.3°F19.1°C 62.0°F16.7°C 86% 3.0 mph SE4.8 kmh SE 9.0 mph14.5 kmh 29.85 in1010.8 mb 0.00 in0.0 mm 0.00 in0.0 mm 0.00 in0.0 mm
06:10 AM 66.4°F19.1°C 62.1°F16.7°C 86% 3.0 mph S4.8 kmh S 9.0 mph14.5 kmh 29.86 in1011.2 mb 0.00 in0.0 mm 0.00 in0.0 mm 0.00 in0.0 mm
06:12 AM 66.3°F19.1°C 62.0°F16.7°C 86% 6.0 mph SSE9.7 kmh SSE 9.0 mph14.5 kmh 29.86 in1011.2 mb 0.00 in0.0 mm 0.00 in0.0 mm 0.00 in0.0 mm
06:14 AM 66.3°F19.1°C 62.0°F16.7°C 86% 1.0 mph E1.6 kmh E 9.0 mph14.5 kmh 29.86 in1011.2 mb 0.00 in0.0 mm 0.00 in0.0 mm 0.00 in0.0 mm
06:16 AM 66.3°F19.1°C 62.0°F16.7°C 86% 3.0 mph ESE4.8 kmh ESE 9.0 mph14.5 kmh 29.86 in1011.2 mb 0.00 in0.0 mm 0.00 in0.0 mm 0.00 in0.0 mm
06:18 AM 66.3°F19.1°C 62.0°F16.7°C 86% 8.0 mph SE12.9 kmh SE 9.0 mph14.5 kmh 29.86 in1011.2 mb 0.00 in0.0 mm 0.00 in0.0 mm 0.00 in0.0 mm
06:20 AM 66.3°F19.1°C 62.0°F16.7°C 86% 3.0 mph E4.8 kmh E 10.0 mph16.1 kmh 29.87 in1011.5 mb 0.00 in0.0 mm 0.00 in0.0 mm 0.00 in0.0 mm
06:22 AM 66.2°F19.0°C 61.9°F16.6°C 86% 5.0 mph SSE8.0 kmh SSE 10.0 mph16.1 kmh 29.86 in1011.2 mb 0.00 in0.0 mm 0.00 in0.0 mm 0.00 in0.0 mm
06:24 AM 66.3°F19.1°C 62.0°F16.7°C 86% 4.0 mph SSE6.4 kmh SSE 10.0 mph16.1 kmh 29.86 in1011.2 mb 0.00 in0.0 mm 0.00 in0.0 mm 0.00 in0.0 mm
06:26 AM 66.3°F19.1°C 62.3°F16.8°C 87% 3.0 mph S4.8 kmh S 10.0 mph16.1 kmh 29.87 in1011.5 mb 0.00 in0.0 mm 0.00 in0.0 mm 0.00 in0.0 mm
06:28 AM 66.3°F19.1°C 62.3°F16.8°C 87% 4.0 mph S6.4 kmh S 10.0 mph16.1 kmh 29.87 in1011.5 mb 0.00 in0.0 mm 0.00 in0.0 mm 0.00 in0.0 mm
06:30 AM 66.3°F19.1°C 62.3°F16.8°C 87% 2.0 mph SSE3.2 kmh SSE 10.0 mph16.1 kmh 29.87 in1011.5 mb 0.00 in0.0 mm 0.00 in0.0 mm 0.00 in0.0 mm
06:32 AM 66.3°F19.1°C 62.3°F16.8°C 87% 4.0 mph SE6.4 kmh SE 10.0 mph16.1 kmh 29.87 in1011.5 mb 0.00 in0.0 mm 0.00 in0.0 mm 0.00 in0.0 mm
06:34 AM 66.3°F19.1°C 62.3°F16.8°C 87% 3.0 mph SE4.8 kmh SE 7.0 mph11.3 kmh 29.87 in1011.5 mb 0.00 in0.0 mm 0.00 in0.0 mm 0.00 in0.0 mm
06:36 AM 66.4°F19.1°C 62.4°F16.9°C 87% 5.0 mph S8.0 kmh S 10.0 mph16.1 kmh 29.87 in1011.5 mb 0.00 in0.0 mm 0.00 in0.0 mm 0.00 in0.0 mm
06:38 AM 66.4°F19.1°C 62.4°F16.9°C 87% 5.0 mph SSE8.0 kmh SSE 10.0 mph16.1 kmh 29.87 in1011.5 mb 0.00 in0.0 mm 0.00 in0.0 mm 0.00 in0.0 mm
06:40 AM 66.4°F19.1°C 62.4°F16.9°C 87% 3.0 mph SE4.8 kmh SE 13.0 mph20.9 kmh 29.87 in1011.5 mb 0.00 in0.0 mm 0.00 in0.0 mm 0.00 in0.0 mm
06:42 AM 66.4°F19.1°C 62.4°F16.9°C 87% 10.0 mph SE16.1 kmh SE 13.0 mph20.9 kmh 29.87 in1011.5 mb 0.00 in0.0 mm 0.00 in0.0 mm 0.00 in0.0 mm
06:44 AM 66.4°F19.1°C 62.4°F16.9°C 87% 3.0 mph SSE4.8 kmh SSE 13.0 mph20.9 kmh 29.87 in1011.5 mb 0.00 in0.0 mm 0.00 in0.0 mm 0.00 in0.0 mm
06:46 AM 66.4°F19.1°C 62.4°F16.9°C 87% 5.0 mph SSE8.0 kmh SSE 13.0 mph20.9 kmh 29.87 in1011.5 mb 0.00 in0.0 mm 0.00 in0.0 mm 0.00 in0.0 mm
06:48 AM 66.5°F19.2°C 62.5°F16.9°C 87% 4.0 mph SE6.4 kmh SE 13.0 mph20.9 kmh 29.87 in1011.5 mb 0.00 in0.0 mm 0.00 in0.0 mm 0.00 in0.0 mm
06:50 AM 66.5°F19.2°C 62.5°F16.9°C 87% 4.0 mph S6.4 kmh S 13.0 mph20.9 kmh 29.87 in1011.5 mb 0.00 in0.0 mm 0.00 in0.0 mm 0.00 in0.0 mm
06:52 AM 66.4°F19.1°C 62.4°F16.9°C 87% 2.0 mph S3.2 kmh S 13.0 mph20.9 kmh 29.87 in1011.5 mb 0.00 in0.0 mm 0.00 in0.0 mm 0.00 in0.0 mm
06:54 AM 66.4°F19.1°C 62.4°F16.9°C 87% 4.0 mph S6.4 kmh S 13.0 mph20.9 kmh 29.87 in1011.5 mb 0.00 in0.0 mm 0.00 in0.0 mm 0.00 in0.0 mm
06:56 AM 66.4°F19.1°C 62.4°F16.9°C 87% 7.0 mph S11.3 kmh S 13.0 mph20.9 kmh 29.87 in1011.5 mb 0.00 in0.0 mm 0.00 in0.0 mm 0.00 in0.0 mm
06:58 AM 66.4°F19.1°C 62.4°F16.9°C 87% 2.0 mph S3.2 kmh S 13.0 mph20.9 kmh 29.88 in1011.9 mb 0.00 in0.0 mm 0.00 in0.0 mm 0.00 in0.0 mm
07:00 AM 66.4°F19.1°C 62.4°F16.9°C 87% Calm Calm 13.0 mph20.9 kmh 29.88 in1011.9 mb 0.00 in0.0 mm 0.00 in0.0 mm 0.00 in0.0 mm
07:02 AM 66.4°F19.1°C 62.4°F16.9°C 87% 1.0 mph S1.6 kmh S 13.0 mph20.9 kmh 29.88 in1011.9 mb 0.00 in0.0 mm 0.00 in0.0 mm 0.00 in0.0 mm
07:04 AM 66.4°F19.1°C 62.4°F16.9°C 87% 3.0 mph S4.8 kmh S 6.0 mph9.7 kmh 29.88 in1011.9 mb 0.00 in0.0 mm 0.00 in0.0 mm 0.00 in0.0 mm
07:06 AM 66.4°F19.1°C 62.4°F16.9°C 87% 6.0 mph SSW9.7 kmh SSW 7.0 mph11.3 kmh 29.88 in1011.9 mb 0.00 in0.0 mm 0.00 in0.0 mm 0.00 in0.0 mm
07:08 AM 66.4°F19.1°C 62.4°F16.9°C 87% 2.0 mph S3.2 kmh S 7.0 mph11.3 kmh 29.87 in1011.5 mb 0.00 in0.0 mm 0.00 in0.0 mm 0.00 in0.0 mm
07:10 AM 66.4°F19.1°C 62.4°F16.9°C 87% 3.0 mph S4.8 kmh S 7.0 mph11.3 kmh 29.88 in1011.9 mb 0.00 in0.0 mm 0.00 in0.0 mm 0.00 in0.0 mm
07:12 AM 66.4°F19.1°C 62.4°F16.9°C 87% 4.0 mph S6.4 kmh S 7.0 mph11.3 kmh 29.87 in1011.5 mb 0.00 in0.0 mm 0.00 in0.0 mm 0.00 in0.0 mm
07:14 AM 66.4°F19.1°C 62.4°F16.9°C 87% 1.0 mph SSE1.6 kmh SSE 7.0 mph11.3 kmh 29.87 in1011.5 mb 0.00 in0.0 mm 0.00 in0.0 mm 0.00 in0.0 mm
07:16 AM 66.4°F19.1°C 62.4°F16.9°C 87% 4.0 mph SW6.4 kmh SW 7.0 mph11.3 kmh 29.88 in1011.9 mb 0.00 in0.0 mm 0.00 in0.0 mm 0.00 in0.0 mm
07:18 AM 66.4°F19.1°C 62.4°F16.9°C 87% 1.0 mph SSW1.6 kmh SSW 7.0 mph11.3 kmh 29.87 in1011.5 mb 0.00 in0.0 mm 0.00 in0.0 mm 0.00 in0.0 mm
07:20 AM 66.4°F19.1°C 62.4°F16.9°C 87% 3.0 mph S4.8 kmh S 7.0 mph11.3 kmh 29.88 in1011.9 mb 0.00 in0.0 mm 0.00 in0.0 mm 0.00 in0.0 mm
07:22 AM 66.3°F19.1°C 62.3°F16.8°C 87% 3.0 mph S4.8 kmh S 7.0 mph11.3 kmh 29.87 in1011.5 mb 0.00 in0.0 mm 0.00 in0.0 mm 0.00 in0.0 mm
07:24 AM 66.4°F19.1°C 62.4°F16.9°C 87% 3.0 mph S4.8 kmh S 9.0 mph14.5 kmh 29.88 in1011.9 mb 0.00 in0.0 mm 0.00 in0.0 mm 0.00 in0.0 mm
07:26 AM 66.3°F19.1°C 62.3°F16.8°C 87% 4.0 mph S6.4 kmh S 9.0 mph14.5 kmh 29.88 in1011.9 mb 0.00 in0.0 mm 0.00 in0.0 mm 0.00 in0.0 mm
07:28 AM 66.4°F19.1°C 62.4°F16.9°C 87% 2.0 mph S3.2 kmh S 9.0 mph14.5 kmh 29.87 in1011.5 mb 0.00 in0.0 mm 0.00 in0.0 mm 0.00 in0.0 mm
07:30 AM 66.4°F19.1°C 62.4°F16.9°C 87% 2.0 mph SSW3.2 kmh SSW 9.0 mph14.5 kmh 29.88 in1011.9 mb 0.00 in0.0 mm 0.00 in0.0 mm 0.00 in0.0 mm
07:32 AM 66.4°F19.1°C 62.4°F16.9°C 87% 7.0 mph S11.3 kmh S 9.0 mph14.5 kmh 29.88 in1011.9 mb 0.00 in0.0 mm 0.00 in0.0 mm 0.00 in0.0 mm
07:34 AM 66.5°F19.2°C 62.5°F16.9°C 87% 2.0 mph S3.2 kmh S 9.0 mph14.5 kmh 29.88 in1011.9 mb 0.00 in0.0 mm 0.00 in0.0 mm 0.00 in0.0 mm
07:36 AM 66.5°F19.2°C 62.5°F16.9°C 87% 1.0 mph SSE1.6 kmh SSE 9.0 mph14.5 kmh 29.88 in1011.9 mb 0.00 in0.0 mm 0.00 in0.0 mm 0.00 in0.0 mm
07:38 AM 66.5°F19.2°C 62.5°F16.9°C 87% 3.0 mph ESE4.8 kmh ESE 9.0 mph14.5 kmh 29.88 in1011.9 mb 0.00 in0.0 mm 0.00 in0.0 mm 0.00 in0.0 mm
07:40 AM 66.6°F19.2°C 62.6°F17.0°C 87% 2.0 mph S3.2 kmh S 9.0 mph14.5 kmh 29.88 in1011.9 mb 0.00 in0.0 mm 0.00 in0.0 mm 0.00 in0.0 mm
07:42 AM 66.6°F19.2°C 62.6°F17.0°C 87% 2.0 mph SSE3.2 kmh SSE 9.0 mph14.5 kmh 29.88 in1011.9 mb 0.00 in0.0 mm 0.00 in0.0 mm 0.00 in0.0 mm
07:44 AM 66.7°F19.3°C 63.0°F17.2°C 88% 3.0 mph SE4.8 kmh SE 9.0 mph14.5 kmh 29.88 in1011.9 mb 0.00 in0.0 mm 0.00 in0.0 mm 0.00 in0.0 mm
07:46 AM 66.8°F19.3°C 63.1°F17.3°C 88% 6.0 mph S9.7 kmh S 9.0 mph14.5 kmh 29.88 in1011.9 mb 0.00 in0.0 mm 0.00 in0.0 mm 0.00 in0.0 mm
07:48 AM 66.8°F19.3°C 63.1°F17.3°C 88% 6.0 mph SSE9.7 kmh SSE 9.0 mph14.5 kmh 29.88 in1011.9 mb 0.00 in0.0 mm 0.00 in0.0 mm 0.00 in0.0 mm
07:50 AM 66.9°F19.4°C 63.2°F17.3°C 88% 4.0 mph S6.4 kmh S 9.0 mph14.5 kmh 29.88 in1011.9 mb 0.00 in0.0 mm 0.00 in0.0 mm 0.00 in0.0 mm
07:52 AM 66.9°F19.4°C 63.2°F17.3°C 88% 3.0 mph S4.8 kmh S 9.0 mph14.5 kmh 29.88 in1011.9 mb 0.00 in0.0 mm 0.00 in0.0 mm 0.00 in0.0 mm
07:54 AM 67.0°F19.4°C 63.3°F17.4°C 88% 5.0 mph SSE8.0 kmh SSE 9.0 mph14.5 kmh 29.88 in1011.9 mb 0.00 in0.0 mm 0.00 in0.0 mm 0.00 in0.0 mm
07:56 AM 67.0°F19.4°C 63.0°F17.2°C 87% 2.0 mph SSE3.2 kmh SSE 9.0 mph14.5 kmh 29.88 in1011.9 mb 0.00 in0.0 mm 0.00 in0.0 mm 0.00 in0.0 mm
07:58 AM 67.1°F19.5°C 63.1°F17.3°C 87% 4.0 mph SSE6.4 kmh SSE 9.0 mph14.5 kmh 29.88 in1011.9 mb 0.00 in0.0 mm 0.00 in0.0 mm 0.00 in0.0 mm
08:00 AM 67.1°F19.5°C 63.1°F17.3°C 87% 3.0 mph SE4.8 kmh SE 9.0 mph14.5 kmh 29.88 in1011.9 mb 0.00 in0.0 mm 0.00 in0.0 mm 0.00 in0.0 mm
08:02 AM 67.2°F19.6°C 63.2°F17.3°C 87% 7.0 mph S11.3 kmh S 9.0 mph14.5 kmh 29.88 in1011.9 mb 0.00 in0.0 mm 0.00 in0.0 mm 0.00 in0.0 mm
08:04 AM 67.2°F19.6°C 63.2°F17.3°C 87% 8.0 mph S12.9 kmh S 9.0 mph14.5 kmh 29.88 in1011.9 mb 0.00 in0.0 mm 0.00 in0.0 mm 0.00 in0.0 mm
08:06 AM 67.2°F19.6°C 63.2°F17.3°C 87% 8.0 mph S12.9 kmh S 11.0 mph17.7 kmh 29.88 in1011.9 mb 0.00 in0.0 mm 0.00 in0.0 mm 0.00 in0.0 mm
08:08 AM 67.3°F19.6°C 63.3°F17.4°C 87% 9.0 mph S14.5 kmh S 11.0 mph17.7 kmh 29.88 in1011.9 mb 0.00 in0.0 mm 0.00 in0.0 mm 0.00 in0.0 mm
08:09 AM 67.3°F19.6°C 63.3°F17.4°C 87% 5.0 mph SE8.0 kmh SE 11.0 mph17.7 kmh 29.88 in1011.9 mb 0.00 in0.0 mm 0.00 in0.0 mm 0.00 in0.0 mm
08:12 AM 67.4°F19.7°C 63.4°F17.4°C 87% 5.0 mph SE8.0 kmh SE 11.0 mph17.7 kmh 29.88 in1011.9 mb 0.00 in0.0 mm 0.00 in0.0 mm 0.00 in0.0 mm
08:14 AM 67.5°F19.7°C 63.5°F17.5°C 87% 8.0 mph S12.9 kmh S 11.0 mph17.7 kmh 29.88 in1011.9 mb 0.00 in0.0 mm 0.00 in0.0 mm 0.00 in0.0 mm
08:16 AM 67.5°F19.7°C 63.5°F17.5°C 87% 4.0 mph SSE6.4 kmh SSE 11.0 mph17.7 kmh 29.88 in1011.9 mb 0.00 in0.0 mm 0.00 in0.0 mm 0.00 in0.0 mm
08:18 AM 67.5°F19.7°C 63.5°F17.5°C 87% 2.0 mph SE3.2 kmh SE 11.0 mph17.7 kmh 29.88 in1011.9 mb 0.00 in0.0 mm 0.00 in0.0 mm 0.00 in0.0 mm
08:20 AM 67.5°F19.7°C 63.5°F17.5°C 87% 3.0 mph S4.8 kmh S 11.0 mph17.7 kmh 29.87 in1011.5 mb 0.00 in0.0 mm 0.00 in0.0 mm 0.00 in0.0 mm
08:22 AM 67.6°F19.8°C 63.6°F17.6°C 87% 4.0 mph SE6.4 kmh SE 11.0 mph17.7 kmh 29.88 in1011.9 mb 0.00 in0.0 mm 0.00 in0.0 mm 0.00 in0.0 mm
08:24 AM 67.6°F19.8°C 63.6°F17.6°C 87% 8.0 mph SSE12.9 kmh SSE 11.0 mph17.7 kmh 29.88 in1011.9 mb 0.00 in0.0 mm 0.00 in0.0 mm 0.00 in0.0 mm
08:26 AM 67.7°F19.8°C 63.7°F17.6°C 87% 6.0 mph SSE9.7 kmh SSE 11.0 mph17.7 kmh 29.88 in1011.9 mb 0.00 in0.0 mm 0.00 in0.0 mm 0.00 in0.0 mm
08:28 AM 67.7°F19.8°C 63.7°F17.6°C 87% 7.0 mph S11.3 kmh S 11.0 mph17.7 kmh 29.88 in1011.9 mb 0.00 in0.0 mm 0.00 in0.0 mm 0.00 in0.0 mm
08:30 AM 67.8°F19.9°C 63.8°F17.7°C 87% 3.0 mph SSW4.8 kmh SSW 11.0 mph17.7 kmh 29.88 in1011.9 mb 0.00 in0.0 mm 0.00 in0.0 mm 0.00 in0.0 mm
08:32 AM 67.8°F19.9°C 63.8°F17.7°C 87% 7.0 mph S11.3 kmh S 11.0 mph17.7 kmh 29.88 in1011.9 mb 0.00 in0.0 mm 0.00 in0.0 mm 0.00 in0.0 mm
08:34 AM 67.9°F19.9°C 63.9°F17.7°C 87% 6.0 mph S9.7 kmh S 9.0 mph14.5 kmh 29.88 in1011.9 mb 0.00 in0.0 mm 0.00 in0.0 mm 0.00 in0.0 mm
08:36 AM 67.9°F19.9°C 63.9°F17.7°C 87% 8.0 mph SE12.9 kmh SE 9.0 mph14.5 kmh 29.88 in1011.9 mb 0.00 in0.0 mm 0.00 in0.0 mm 0.00 in0.0 mm
08:38 AM 68.0°F20.0°C 64.0°F17.8°C 87% 4.0 mph S6.4 kmh S 9.0 mph14.5 kmh 29.88 in1011.9 mb 0.00 in0.0 mm 0.00 in0.0 mm 0.00 in0.0 mm
08:40 AM 68.0°F20.0°C 64.0°F17.8°C 87% 6.0 mph SSE9.7 kmh SSE 9.0 mph14.5 kmh 29.89 in1012.2 mb 0.00 in0.0 mm 0.00 in0.0 mm 0.00 in0.0 mm
08:42 AM 68.1°F20.1°C 64.1°F17.8°C 87% 7.0 mph SSE11.3 kmh SSE 9.0 mph14.5 kmh 29.88 in1011.9 mb 0.00 in0.0 mm 0.00 in0.0 mm 0.00 in0.0 mm
08:44 AM 68.1°F20.1°C 64.1°F17.8°C 87% 6.0 mph S9.7 kmh S 9.0 mph14.5 kmh 29.88 in1011.9 mb 0.00 in0.0 mm 0.00 in0.0 mm 0.00 in0.0 mm
08:46 AM 68.2°F20.1°C 63.9°F17.7°C 86% 10.0 mph SSE16.1 kmh SSE 10.0 mph16.1 kmh 29.88 in1011.9 mb 0.00 in0.0 mm 0.00 in0.0 mm 0.00 in0.0 mm
08:48 AM 68.2°F20.1°C 63.9°F17.7°C 86% 7.0 mph SSW11.3 kmh SSW 10.0 mph16.1 kmh 29.88 in1011.9 mb 0.00 in0.0 mm 0.00 in0.0 mm 0.00 in0.0 mm
08:50 AM 68.3°F20.2°C 64.0°F17.8°C 86% 7.0 mph S11.3 kmh S 10.0 mph16.1 kmh 29.88 in1011.9 mb 0.00 in0.0 mm 0.00 in0.0 mm 0.00 in0.0 mm
08:52 AM 68.3°F20.2°C 64.0°F17.8°C 86% 6.0 mph SSW9.7 kmh SSW 12.0 mph19.3 kmh 29.88 in1011.9 mb 0.00 in0.0 mm 0.00 in0.0 mm 0.00 in0.0 mm
08:54 AM 68.4°F20.2°C 64.1°F17.8°C 86% 3.0 mph SSW4.8 kmh SSW 12.0 mph19.3 kmh 29.89 in1012.2 mb 0.00 in0.0 mm 0.00 in0.0 mm 0.00 in0.0 mm
08:56 AM 68.5°F20.3°C 64.2°F17.9°C 86% 5.0 mph S8.0 kmh S 12.0 mph19.3 kmh 29.89 in1012.2 mb 0.00 in0.0 mm 0.00 in0.0 mm 0.00 in0.0 mm
08:58 AM 68.6°F20.3°C 63.9°F17.7°C 85% 9.0 mph SE14.5 kmh SE 12.0 mph19.3 kmh 29.89 in1012.2 mb 0.00 in0.0 mm 0.00 in0.0 mm 0.00 in0.0 mm
09:00 AM 68.6°F20.3°C 63.9°F17.7°C 85% 2.0 mph S3.2 kmh S 12.0 mph19.3 kmh 29.88 in1011.9 mb 0.00 in0.0 mm 0.00 in0.0 mm 0.00 in0.0 mm
09:02 AM 68.6°F20.3°C 63.9°F17.7°C 85% 4.0 mph S6.4 kmh S 12.0 mph19.3 kmh 29.89 in1012.2 mb 0.00 in0.0 mm 0.00 in0.0 mm 0.00 in0.0 mm
09:04 AM 68.7°F20.4°C 64.0°F17.8°C 85% 4.0 mph S6.4 kmh S 10.0 mph16.1 kmh 29.89 in1012.2 mb 0.00 in0.0 mm 0.00 in0.0 mm 0.00 in0.0 mm
09:06 AM 68.8°F20.4°C 64.1°F17.8°C 85% 5.0 mph SSE8.0 kmh SSE 10.0 mph16.1 kmh 29.89 in1012.2 mb 0.00 in0.0 mm 0.00 in0.0 mm 0.00 in0.0 mm
09:08 AM 68.8°F20.4°C 64.1°F17.8°C 85% 11.0 mph S17.7 kmh S 12.0 mph19.3 kmh 29.89 in1012.2 mb 0.00 in0.0 mm 0.00 in0.0 mm 0.00 in0.0 mm
09:10 AM 68.8°F20.4°C 63.8°F17.7°C 84% 6.0 mph S9.7 kmh S 12.0 mph19.3 kmh 29.89 in1012.2 mb 0.00 in0.0 mm 0.00 in0.0 mm 0.00 in0.0 mm
09:12 AM 68.8°F20.4°C 63.8°F17.7°C 84% 3.0 mph SE4.8 kmh SE 12.0 mph19.3 kmh 29.89 in1012.2 mb 0.00 in0.0 mm 0.00 in0.0 mm 0.00 in0.0 mm
09:14 AM 68.9°F20.5°C 63.9°F17.7°C 84% 4.0 mph SSE6.4 kmh SSE 12.0 mph19.3 kmh 29.89 in1012.2 mb 0.00 in0.0 mm 0.00 in0.0 mm 0.00 in0.0 mm
09:16 AM 68.9°F20.5°C 63.9°F17.7°C 84% 3.0 mph S4.8 kmh S 12.0 mph19.3 kmh 29.89 in1012.2 mb 0.00 in0.0 mm 0.00 in0.0 mm 0.00 in0.0 mm
09:18 AM 68.9°F20.5°C 63.9°F17.7°C 84% 8.0 mph S12.9 kmh S 12.0 mph19.3 kmh 29.89 in1012.2 mb 0.00 in0.0 mm 0.00 in0.0 mm 0.00 in0.0 mm
09:20 AM 69.0°F20.6°C 64.0°F17.8°C 84% 3.0 mph SSE4.8 kmh SSE 12.0 mph19.3 kmh 29.89 in1012.2 mb 0.00 in0.0 mm 0.00 in0.0 mm 0.00 in0.0 mm
09:22 AM 69.0°F20.6°C 64.0°F17.8°C 84% 5.0 mph S8.0 kmh S 12.0 mph19.3 kmh 29.89 in1012.2 mb 0.00 in0.0 mm 0.00 in0.0 mm 0.00 in0.0 mm
09:24 AM 69.1°F20.6°C 64.1°F17.8°C 84% 7.0 mph SSE11.3 kmh SSE 12.0 mph19.3 kmh 29.89 in1012.2 mb 0.00 in0.0 mm 0.00 in0.0 mm 0.00 in0.0 mm
09:25 AM 69.1°F20.6°C 64.1°F17.8°C 84% 5.0 mph S8.0 kmh S 12.0 mph19.3 kmh 29.89 in1012.2 mb 0.00 in0.0 mm 0.00 in0.0 mm 0.00 in0.0 mm
09:28 AM 69.1°F20.6°C 64.1°F17.8°C 84% 4.0 mph S6.4 kmh S 12.0 mph19.3 kmh 29.89 in1012.2 mb 0.00 in0.0 mm 0.00 in0.0 mm 0.00 in0.0 mm
09:30 AM 69.2°F20.7°C 64.2°F17.9°C 84% 7.0 mph S11.3 kmh S 12.0 mph19.3 kmh 29.89 in1012.2 mb 0.00 in0.0 mm 0.00 in0.0 mm 0.00 in0.0 mm
09:32 AM 69.3°F20.7°C 64.3°F17.9°C 84% 2.0 mph SE3.2 kmh SE 12.0 mph19.3 kmh 29.89 in1012.2 mb 0.00 in0.0 mm 0.00 in0.0 mm 0.00 in0.0 mm
09:34 AM 69.3°F20.7°C 64.3°F17.9°C 84% 5.0 mph SSW8.0 kmh SSW 10.0 mph16.1 kmh 29.89 in1012.2 mb 0.00 in0.0 mm 0.00 in0.0 mm 0.00 in0.0 mm
09:36 AM 69.4°F20.8°C 64.4°F18.0°C 84% 8.0 mph S12.9 kmh S 10.0 mph16.1 kmh 29.89 in1012.2 mb 0.00 in0.0 mm 0.00 in0.0 mm 0.00 in0.0 mm
09:38 AM 69.4°F20.8°C 64.0°F17.8°C 83% 5.0 mph SW8.0 kmh SW 10.0 mph16.1 kmh 29.89 in1012.2 mb 0.00 in0.0 mm 0.00 in0.0 mm 0.00 in0.0 mm
09:40 AM 69.5°F20.8°C 64.1°F17.8°C 83% 4.0 mph S6.4 kmh S 10.0 mph16.1 kmh 29.89 in1012.2 mb 0.00 in0.0 mm 0.00 in0.0 mm 0.00 in0.0 mm
09:42 AM 69.5°F20.8°C 64.1°F17.8°C 83% 5.0 mph SSW8.0 kmh SSW 10.0 mph16.1 kmh 29.89 in1012.2 mb 0.00 in0.0 mm 0.00 in0.0 mm 0.00 in0.0 mm
09:44 AM 69.6°F20.9°C 64.2°F17.9°C 83% 8.0 mph S12.9 kmh S 10.0 mph16.1 kmh 29.89 in1012.2 mb 0.00 in0.0 mm 0.00 in0.0 mm 0.00 in0.0 mm
09:46 AM 69.6°F20.9°C 64.2°F17.9°C 83% 5.0 mph SSW8.0 kmh SSW 10.0 mph16.1 kmh 29.89 in1012.2 mb 0.00 in0.0 mm 0.00 in0.0 mm 0.00 in0.0 mm
09:47 AM 69.8°F21.0°C 64.4°F18.0°C 83% 5.0 mph S8.0 kmh S 10.0 mph16.1 kmh 29.89 in1012.2 mb 0.00 in0.0 mm 0.00 in0.0 mm 0.00 in0.0 mm
09:49 AM 69.9°F21.1°C 64.5°F18.1°C 83% 6.0 mph SSW9.7 kmh SSW 10.0 mph16.1 kmh 29.89 in1012.2 mb 0.00 in0.0 mm 0.00 in0.0 mm 0.00 in0.0 mm
09:52 AM 70.0°F21.1°C 64.3°F17.9°C 82% 6.0 mph SSW9.7 kmh SSW 13.0 mph20.9 kmh 29.89 in1012.2 mb 0.00 in0.0 mm 0.00 in0.0 mm 0.00 in0.0 mm
09:54 AM 70.1°F21.2°C 64.4°F18.0°C 82% 2.0 mph S3.2 kmh S 13.0 mph20.9 kmh 29.88 in1011.9 mb 0.00 in0.0 mm 0.00 in0.0 mm 0.00 in0.0 mm
09:56 AM 70.2°F21.2°C 64.5°F18.1°C 82% 7.0 mph S11.3 kmh S 13.0 mph20.9 kmh 29.88 in1011.9 mb 0.00 in0.0 mm 0.00 in0.0 mm 0.00 in0.0 mm
09:58 AM 70.3°F21.3°C 64.2°F17.9°C 81% 6.0 mph S9.7 kmh S 13.0 mph20.9 kmh 29.89 in1012.2 mb 0.00 in0.0 mm 0.00 in0.0 mm 0.00 in0.0 mm
10:00 AM 70.4°F21.3°C 64.3°F17.9°C 81% 6.0 mph SW9.7 kmh SW 13.0 mph20.9 kmh 29.89 in1012.2 mb 0.00 in0.0 mm 0.00 in0.0 mm 0.00 in0.0 mm
10:02 AM 70.5°F21.4°C 64.4°F18.0°C 81% 2.0 mph S3.2 kmh S 13.0 mph20.9 kmh 29.89 in1012.2 mb 0.00 in0.0 mm 0.00 in0.0 mm 0.00 in0.0 mm
10:04 AM 70.5°F21.4°C 64.4°F18.0°C 81% 4.0 mph S6.4 kmh S 10.0 mph16.1 kmh 29.89 in1012.2 mb 0.00 in0.0 mm 0.00 in0.0 mm 0.00 in0.0 mm
10:06 AM 70.6°F21.4°C 64.5°F18.1°C 81% 10.0 mph S16.1 kmh S 13.0 mph20.9 kmh 29.89 in1012.2 mb 0.00 in0.0 mm 0.00 in0.0 mm 0.00 in0.0 mm
10:08 AM 70.8°F21.6°C 64.3°F17.9°C 80% 6.0 mph S9.7 kmh S 13.0 mph20.9 kmh 29.88 in1011.9 mb 0.00 in0.0 mm 0.00 in0.0 mm 0.00 in0.0 mm
10:10 AM 70.8°F21.6°C 64.3°F17.9°C 80% 9.0 mph SSE14.5 kmh SSE 13.0 mph20.9 kmh 29.88 in1011.9 mb 0.00 in0.0 mm 0.00 in0.0 mm 0.00 in0.0 mm
10:12 AM 71.0°F21.7°C 64.5°F18.1°C 80% 9.0 mph S14.5 kmh S 15.0 mph24.1 kmh 29.88 in1011.9 mb 0.00 in0.0 mm 0.00 in0.0 mm 0.00 in0.0 mm
10:14 AM 71.1°F21.7°C 64.3°F17.9°C 79% 5.0 mph SSE8.0 kmh SSE 15.0 mph24.1 kmh 29.88 in1011.9 mb 0.00 in0.0 mm 0.00 in0.0 mm 0.00 in0.0 mm
10:16 AM 71.4°F21.9°C 64.6°F18.1°C 79% 4.0 mph S6.4 kmh S 15.0 mph24.1 kmh 29.88 in1011.9 mb 0.00 in0.0 mm 0.00 in0.0 mm 0.00 in0.0 mm
10:18 AM 71.4°F21.9°C 64.6°F18.1°C 79% 6.0 mph S9.7 kmh S 15.0 mph24.1 kmh 29.88 in1011.9 mb 0.00 in0.0 mm 0.00 in0.0 mm 0.00 in0.0 mm
10:20 AM 71.5°F21.9°C 64.3°F17.9°C 78% 3.0 mph SSW4.8 kmh SSW 15.0 mph24.1 kmh 29.88 in1011.9 mb 0.00 in0.0 mm 0.00 in0.0 mm 0.00 in0.0 mm
10:22 AM 71.7°F22.1°C 64.5°F18.1°C 78% 5.0 mph S8.0 kmh S 15.0 mph24.1 kmh 29.88 in1011.9 mb 0.00 in0.0 mm 0.00 in0.0 mm 0.00 in0.0 mm
10:24 AM 71.8°F22.1°C 64.6°F18.1°C 78% 6.0 mph SSW9.7 kmh SSW 15.0 mph24.1 kmh 29.88 in1011.9 mb 0.00 in0.0 mm 0.00 in0.0 mm 0.00 in0.0 mm
10:26 AM 72.0°F22.2°C 64.4°F18.0°C 77% 8.0 mph SW12.9 kmh SW 15.0 mph24.1 kmh 29.88 in1011.9 mb 0.00 in0.0 mm 0.00 in0.0 mm 0.00 in0.0 mm
10:28 AM 72.2°F22.3°C 64.2°F17.9°C 76% 8.0 mph S12.9 kmh S 15.0 mph24.1 kmh 29.88 in1011.9 mb 0.00 in0.0 mm 0.00 in0.0 mm 0.00 in0.0 mm
10:30 AM 72.4°F22.4°C 64.4°F18.0°C 76% 6.0 mph WSW9.7 kmh WSW 15.0 mph24.1 kmh 29.88 in1011.9 mb 0.00 in0.0 mm 0.00 in0.0 mm 0.00 in0.0 mm
10:31 AM 72.5°F22.5°C 64.1°F17.8°C 75% 5.0 mph SSE8.0 kmh SSE 15.0 mph24.1 kmh 29.88 in1011.9 mb 0.00 in0.0 mm 0.00 in0.0 mm 0.00 in0.0 mm
10:33 AM 72.7°F22.6°C 63.9°F17.7°C 74% 6.0 mph SSE9.7 kmh SSE 16.0 mph25.7 kmh 29.88 in1011.9 mb 0.00 in0.0 mm 0.00 in0.0 mm 0.00 in0.0 mm
10:36 AM 72.9°F22.7°C 63.8°F17.7°C 73% 19.0 mph S30.6 kmh S 19.0 mph30.6 kmh 29.87 in1011.5 mb 0.00 in0.0 mm 0.00 in0.0 mm 0.00 in0.0 mm
10:38 AM 73.2°F22.9°C 62.8°F17.1°C 70% 14.0 mph SSE22.5 kmh SSE 19.0 mph30.6 kmh 29.88 in1011.9 mb 0.00 in0.0 mm 0.00 in0.0 mm 0.00 in0.0 mm
10:40 AM 73.5°F23.1°C 62.7°F17.1°C 69% 8.0 mph S12.9 kmh S 20.0 mph32.2 kmh 29.87 in1011.5 mb 0.00 in0.0 mm 0.00 in0.0 mm 0.00 in0.0 mm
10:42 AM 73.6°F23.1°C 62.8°F17.1°C 69% 18.0 mph S29.0 kmh S 20.0 mph32.2 kmh 29.87 in1011.5 mb 0.00 in0.0 mm 0.00 in0.0 mm 0.00 in0.0 mm
10:44 AM 73.7°F23.2°C 62.9°F17.2°C 69% 12.0 mph S19.3 kmh S 20.0 mph32.2 kmh 29.87 in1011.5 mb 0.00 in0.0 mm 0.00 in0.0 mm 0.00 in0.0 mm
10:46 AM 73.8°F23.2°C 63.0°F17.2°C 69% 19.0 mph WSW30.6 kmh WSW 20.0 mph32.2 kmh 29.87 in1011.5 mb 0.00 in0.0 mm 0.00 in0.0 mm 0.00 in0.0 mm
10:48 AM 73.8°F23.2°C 63.0°F17.2°C 69% 14.0 mph S22.5 kmh S 20.0 mph32.2 kmh 29.87 in1011.5 mb 0.00 in0.0 mm 0.00 in0.0 mm 0.00 in0.0 mm
10:50 AM 73.9°F23.3°C 63.1°F17.3°C 69% 6.0 mph S9.7 kmh S 20.0 mph32.2 kmh 29.87 in1011.5 mb 0.00 in0.0 mm 0.00 in0.0 mm 0.00 in0.0 mm
10:52 AM 74.0°F23.3°C 63.2°F17.3°C 69% 12.0 mph SSE19.3 kmh SSE 20.0 mph32.2 kmh 29.87 in1011.5 mb 0.00 in0.0 mm 0.00 in0.0 mm 0.00 in0.0 mm
10:54 AM 74.0°F23.3°C 63.2°F17.3°C 69% 7.0 mph S11.3 kmh S 20.0 mph32.2 kmh 29.86 in1011.2 mb 0.00 in0.0 mm 0.00 in0.0 mm 0.00 in0.0 mm
10:56 AM 74.1°F23.4°C 63.3°F17.4°C 69% 5.0 mph SSW8.0 kmh SSW 20.0 mph32.2 kmh 29.86 in1011.2 mb 0.00 in0.0 mm 0.00 in0.0 mm 0.00 in0.0 mm
10:58 AM 74.2°F23.4°C 63.0°F17.2°C 68% 6.0 mph SW9.7 kmh SW 20.0 mph32.2 kmh 29.86 in1011.2 mb 0.00 in0.0 mm 0.00 in0.0 mm 0.00 in0.0 mm
11:00 AM 74.3°F23.5°C 63.1°F17.3°C 68% 13.0 mph SSW20.9 kmh SSW 20.0 mph32.2 kmh 29.86 in1011.2 mb 0.00 in0.0 mm 0.00 in0.0 mm 0.00 in0.0 mm
11:02 AM 74.4°F23.6°C 62.7°F17.1°C 67% 14.0 mph WSW22.5 kmh WSW 20.0 mph32.2 kmh 29.86 in1011.2 mb 0.00 in0.0 mm 0.00 in0.0 mm 0.00 in0.0 mm
11:04 AM 74.4°F23.6°C 62.7°F17.1°C 67% 13.0 mph S20.9 kmh S 15.0 mph24.1 kmh 29.86 in1011.2 mb 0.00 in0.0 mm 0.00 in0.0 mm 0.00 in0.0 mm
11:06 AM 74.6°F23.7°C 62.9°F17.2°C 67% 9.0 mph SSW14.5 kmh SSW 17.0 mph27.4 kmh 29.85 in1010.8 mb 0.00 in0.0 mm 0.00 in0.0 mm 0.00 in0.0 mm
11:08 AM 74.7°F23.7°C 63.0°F17.2°C 67% 8.0 mph S12.9 kmh S 18.0 mph29.0 kmh 29.85 in1010.8 mb 0.00 in0.0 mm 0.00 in0.0 mm 0.00 in0.0 mm
11:10 AM 74.8°F23.8°C 62.7°F17.1°C 66% 6.0 mph S9.7 kmh S 26.0 mph41.8 kmh 29.85 in1010.8 mb 0.00 in0.0 mm 0.00 in0.0 mm 0.00 in0.0 mm
11:12 AM 74.9°F23.8°C 63.2°F17.3°C 67% 18.0 mph SW29.0 kmh SW 26.0 mph41.8 kmh 29.85 in1010.8 mb 0.00 in0.0 mm 0.00 in0.0 mm 0.00 in0.0 mm
11:14 AM 75.0°F23.9°C 62.9°F17.2°C 66% 11.0 mph SE17.7 kmh SE 26.0 mph41.8 kmh 29.85 in1010.8 mb 0.00 in0.0 mm 0.00 in0.0 mm 0.00 in0.0 mm
11:16 AM 75.2°F24.0°C 63.1°F17.3°C 66% 10.0 mph SW16.1 kmh SW 26.0 mph41.8 kmh 29.85 in1010.8 mb 0.00 in0.0 mm 0.00 in0.0 mm 0.00 in0.0 mm
11:18 AM 75.4°F24.1°C 63.3°F17.4°C 66% 5.0 mph S8.0 kmh S 26.0 mph41.8 kmh 29.85 in1010.8 mb 0.00 in0.0 mm 0.00 in0.0 mm 0.00 in0.0 mm
11:20 AM 75.7°F24.3°C 63.1°F17.3°C 65% 21.0 mph SW33.8 kmh SW 26.0 mph41.8 kmh 29.85 in1010.8 mb 0.00 in0.0 mm 0.00 in0.0 mm 0.00 in0.0 mm
11:22 AM 75.8°F24.3°C 62.3°F16.8°C 63% 9.0 mph SSW14.5 kmh SSW 26.0 mph41.8 kmh 29.85 in1010.8 mb 0.00 in0.0 mm 0.00 in0.0 mm 0.00 in0.0 mm
11:24 AM 75.8°F24.3°C 62.8°F17.1°C 64% 14.0 mph SSW22.5 kmh SSW 26.0 mph41.8 kmh 29.85 in1010.8 mb 0.00 in0.0 mm 0.00 in0.0 mm 0.00 in0.0 mm
11:26 AM 75.6°F24.2°C 62.6°F17.0°C 64% 14.0 mph SW22.5 kmh SW 26.0 mph41.8 kmh 29.85 in1010.8 mb 0.00 in0.0 mm 0.00 in0.0 mm 0.00 in0.0 mm
11:27 AM 75.4°F24.1°C 62.8°F17.1°C 65% 15.0 mph S24.1 kmh S 26.0 mph41.8 kmh 29.85 in1010.8 mb 0.00 in0.0 mm 0.00 in0.0 mm 0.00 in0.0 mm
11:30 AM 75.4°F24.1°C 62.8°F17.1°C 65% 26.0 mph SSE41.8 kmh SSE 26.0 mph41.8 kmh 29.85 in1010.8 mb 0.00 in0.0 mm 0.00 in0.0 mm 0.00 in0.0 mm
11:32 AM 75.3°F24.1°C 62.7°F17.1°C 65% 24.0 mph S38.6 kmh S 26.0 mph41.8 kmh 29.85 in1010.8 mb 0.00 in0.0 mm 0.00 in0.0 mm 0.00 in0.0 mm
11:34 AM 75.2°F24.0°C 62.2°F16.8°C 64% 7.0 mph SW11.3 kmh SW 20.0 mph32.2 kmh 29.85 in1010.8 mb 0.00 in0.0 mm 0.00 in0.0 mm 0.00 in0.0 mm
11:36 AM 75.1°F23.9°C 62.5°F16.9°C 65% 10.0 mph S16.1 kmh S 20.0 mph32.2 kmh 29.85 in1010.8 mb 0.00 in0.0 mm 0.00 in0.0 mm 0.00 in0.0 mm
11:38 AM 75.1°F23.9°C 62.5°F16.9°C 65% 9.0 mph SSW14.5 kmh SSW 20.0 mph32.2 kmh 29.85 in1010.8 mb 0.00 in0.0 mm 0.00 in0.0 mm 0.00 in0.0 mm
11:40 AM 75.2°F24.0°C 62.6°F17.0°C 65% 12.0 mph SW19.3 kmh SW 20.0 mph32.2 kmh 29.85 in1010.8 mb 0.00 in0.0 mm 0.00 in0.0 mm 0.00 in0.0 mm
11:42 AM 75.1°F23.9°C 62.1°F16.7°C 64% 18.0 mph SW29.0 kmh SW 24.0 mph38.6 kmh 29.85 in1010.8 mb 0.00 in0.0 mm 0.00 in0.0 mm 0.00 in0.0 mm
11:44 AM 75.0°F23.9°C 62.0°F16.7°C 64% 25.0 mph SW40.2 kmh SW 28.0 mph45.1 kmh 29.84 in1010.5 mb 0.00 in0.0 mm 0.00 in0.0 mm 0.00 in0.0 mm
11:46 AM 75.0°F23.9°C 62.0°F16.7°C 64% 20.0 mph SSW32.2 kmh SSW 28.0 mph45.1 kmh 29.84 in1010.5 mb 0.00 in0.0 mm 0.00 in0.0 mm 0.00 in0.0 mm
11:48 AM 74.9°F23.8°C 62.4°F16.9°C 65% 6.0 mph SW9.7 kmh SW 28.0 mph45.1 kmh 29.84 in1010.5 mb 0.00 in0.0 mm 0.00 in0.0 mm 0.00 in0.0 mm
11:50 AM 74.9°F23.8°C 62.4°F16.9°C 65% 9.0 mph S14.5 kmh S 28.0 mph45.1 kmh 29.84 in1010.5 mb 0.00 in0.0 mm 0.00 in0.0 mm 0.00 in0.0 mm
11:52 AM 74.9°F23.8°C 62.4°F16.9°C 65% 11.0 mph SSW17.7 kmh SSW 28.0 mph45.1 kmh 29.84 in1010.5 mb 0.00 in0.0 mm 0.00 in0.0 mm 0.00 in0.0 mm
11:54 AM 75.0°F23.9°C 62.9°F17.2°C 66% 6.0 mph SSW9.7 kmh SSW 28.0 mph45.1 kmh 29.84 in1010.5 mb 0.00 in0.0 mm 0.00 in0.0 mm 0.00 in0.0 mm
11:56 AM 75.0°F23.9°C 62.9°F17.2°C 66% 4.0 mph SW6.4 kmh SW 28.0 mph45.1 kmh 29.84 in1010.5 mb 0.00 in0.0 mm 0.00 in0.0 mm 0.00 in0.0 mm
11:58 AM 75.2°F24.0°C 62.6°F17.0°C 65% 17.0 mph S27.4 kmh S 28.0 mph45.1 kmh 29.84 in1010.5 mb 0.00 in0.0 mm 0.00 in0.0 mm 0.00 in0.0 mm
12:00 PM 75.1°F23.9°C 62.5°F16.9°C 65% 12.0 mph S19.3 kmh S 28.0 mph45.1 kmh 29.84 in1010.5 mb 0.00 in0.0 mm 0.00 in0.0 mm 0.00 in0.0 mm
12:02 PM 75.3°F24.1°C 62.7°F17.1°C 65% 15.0 mph S24.1 kmh S 28.0 mph45.1 kmh 29.84 in1010.5 mb 0.00 in0.0 mm 0.00 in0.0 mm 0.00 in0.0 mm
12:04 PM 75.3°F24.1°C 62.7°F17.1°C 65% 14.0 mph SW22.5 kmh SW 22.0 mph35.4 kmh 29.84 in1010.5 mb 0.00 in0.0 mm 0.00 in0.0 mm 0.00 in0.0 mm
12:06 PM 75.3°F24.1°C 62.3°F16.8°C 64% 13.0 mph WSW20.9 kmh WSW 22.0 mph35.4 kmh 29.84 in1010.5 mb 0.00 in0.0 mm 0.00 in0.0 mm 0.00 in0.0 mm
12:08 PM 75.4°F24.1°C 62.4°F16.9°C 64% 7.0 mph S11.3 kmh S 26.0 mph41.8 kmh 29.83 in1010.2 mb 0.00 in0.0 mm 0.00 in0.0 mm 0.00 in0.0 mm
12:10 PM 75.5°F24.2°C 62.5°F16.9°C 64% 11.0 mph S17.7 kmh S 26.0 mph41.8 kmh 29.83 in1010.2 mb 0.00 in0.0 mm 0.00 in0.0 mm 0.00 in0.0 mm
12:12 PM 75.5°F24.2°C 62.5°F16.9°C 64% 14.0 mph SW22.5 kmh SW 26.0 mph41.8 kmh 29.83 in1010.2 mb 0.00 in0.0 mm 0.00 in0.0 mm 0.00 in0.0 mm
12:14 PM 75.6°F24.2°C 62.6°F17.0°C 64% 8.0 mph SSW12.9 kmh SSW 26.0 mph41.8 kmh 29.83 in1010.2 mb 0.00 in0.0 mm 0.00 in0.0 mm 0.00 in0.0 mm
12:16 PM 75.6°F24.2°C 62.6°F17.0°C 64% 9.0 mph S14.5 kmh S 26.0 mph41.8 kmh 29.83 in1010.2 mb 0.00 in0.0 mm 0.00 in0.0 mm 0.00 in0.0 mm
12:18 PM 75.7°F24.3°C 62.7°F17.1°C 64% 14.0 mph S22.5 kmh S 26.0 mph41.8 kmh 29.83 in1010.2 mb 0.00 in0.0 mm 0.00 in0.0 mm 0.00 in0.0 mm
12:20 PM 75.7°F24.3°C 62.2°F16.8°C 63% 11.0 mph S17.7 kmh S 26.0 mph41.8 kmh 29.82 in1009.8 mb 0.00 in0.0 mm 0.00 in0.0 mm 0.00 in0.0 mm
12:22 PM 75.8°F24.3°C 62.3°F16.8°C 63% 9.0 mph S14.5 kmh S 26.0 mph41.8 kmh 29.82 in1009.8 mb 0.00 in0.0 mm 0.00 in0.0 mm 0.00 in0.0 mm
12:24 PM 75.8°F24.3°C 62.3°F16.8°C 63% 12.0 mph SSW19.3 kmh SSW 26.0 mph41.8 kmh 29.82 in1009.8 mb 0.00 in0.0 mm 0.00 in0.0 mm 0.00 in0.0 mm
12:26 PM 75.8°F24.3°C 62.3°F16.8°C 63% 15.0 mph SW24.1 kmh SW 26.0 mph41.8 kmh 29.82 in1009.8 mb 0.00 in0.0 mm 0.00 in0.0 mm 0.00 in0.0 mm
12:28 PM 75.9°F24.4°C 62.0°F16.7°C 62% 21.0 mph S33.8 kmh S 26.0 mph41.8 kmh 29.82 in1009.8 mb 0.00 in0.0 mm 0.00 in0.0 mm 0.00 in0.0 mm
12:30 PM 75.9°F24.4°C 62.0°F16.7°C 62% 7.0 mph SSW11.3 kmh SSW 26.0 mph41.8 kmh 29.82 in1009.8 mb 0.00 in0.0 mm 0.00 in0.0 mm 0.00 in0.0 mm
12:32 PM 75.9°F24.4°C 62.0°F16.7°C 62% 16.0 mph S25.7 kmh S 26.0 mph41.8 kmh 29.82 in1009.8 mb 0.00 in0.0 mm 0.00 in0.0 mm 0.00 in0.0 mm
12:34 PM 76.0°F24.4°C 62.1°F16.7°C 62% 4.0 mph SSW6.4 kmh SSW 22.0 mph35.4 kmh 29.82 in1009.8 mb 0.00 in0.0 mm 0.00 in0.0 mm 0.00 in0.0 mm
12:36 PM 75.9°F24.4°C 62.0°F16.7°C 62% 14.0 mph SW22.5 kmh SW 22.0 mph35.4 kmh 29.82 in1009.8 mb 0.00 in0.0 mm 0.00 in0.0 mm 0.00 in0.0 mm
12:38 PM 76.0°F24.4°C 62.1°F16.7°C 62% 7.0 mph S11.3 kmh S 22.0 mph35.4 kmh 29.82 in1009.8 mb 0.00 in0.0 mm 0.00 in0.0 mm 0.00 in0.0 mm
12:40 PM 76.0°F24.4°C 61.6°F16.4°C 61% 14.0 mph SW22.5 kmh SW 23.0 mph37.0 kmh 29.82 in1009.8 mb 0.00 in0.0 mm 0.00 in0.0 mm 0.00 in0.0 mm
12:42 PM 76.0°F24.4°C 61.6°F16.4°C 61% 11.0 mph SSW17.7 kmh SSW 23.0 mph37.0 kmh 29.82 in1009.8 mb 0.00 in0.0 mm 0.00 in0.0 mm 0.00 in0.0 mm
12:44 PM 76.0°F24.4°C 62.1°F16.7°C 62% 9.0 mph SSW14.5 kmh SSW 23.0 mph37.0 kmh 29.81 in1009.5 mb 0.00 in0.0 mm 0.00 in0.0 mm 0.00 in0.0 mm
12:46 PM 76.0°F24.4°C 62.1°F16.7°C 62% 16.0 mph S25.7 kmh S 23.0 mph37.0 kmh 29.81 in1009.5 mb 0.00 in0.0 mm 0.00 in0.0 mm 0.00 in0.0 mm
12:48 PM 75.9°F24.4°C 62.0°F16.7°C 62% 17.0 mph SSW27.4 kmh SSW 24.0 mph38.6 kmh 29.81 in1009.5 mb 0.00 in0.0 mm 0.00 in0.0 mm 0.00 in0.0 mm
12:50 PM 75.8°F24.3°C 61.9°F16.6°C 62% 10.0 mph SW16.1 kmh SW 24.0 mph38.6 kmh 29.81 in1009.5 mb 0.00 in0.0 mm 0.00 in0.0 mm 0.00 in0.0 mm
12:52 PM 75.8°F24.3°C 61.9°F16.6°C 62% 11.0 mph SE17.7 kmh SE 24.0 mph38.6 kmh 29.81 in1009.5 mb 0.00 in0.0 mm 0.00 in0.0 mm 0.00 in0.0 mm
12:54 PM 75.8°F24.3°C 61.9°F16.6°C 62% 10.0 mph S16.1 kmh S 24.0 mph38.6 kmh 29.81 in1009.5 mb 0.00 in0.0 mm 0.00 in0.0 mm 0.00 in0.0 mm
12:56 PM 75.9°F24.4°C 62.0°F16.7°C 62% 7.0 mph SSW11.3 kmh SSW 24.0 mph38.6 kmh 29.80 in1009.1 mb 0.00 in0.0 mm 0.00 in0.0 mm 0.00 in0.0 mm
12:58 PM 75.9°F24.4°C 62.0°F16.7°C 62% 11.0 mph SSW17.7 kmh SSW 24.0 mph38.6 kmh 29.80 in1009.1 mb 0.00 in0.0 mm 0.00 in0.0 mm 0.00 in0.0 mm
01:00 PM 76.0°F24.4°C 62.1°F16.7°C 62% 10.0 mph S16.1 kmh S 24.0 mph38.6 kmh 29.80 in1009.1 mb 0.00 in0.0 mm 0.00 in0.0 mm 0.00 in0.0 mm
01:02 PM 76.1°F24.5°C 62.2°F16.8°C 62% 9.0 mph SW14.5 kmh SW 24.0 mph38.6 kmh 29.80 in1009.1 mb 0.00 in0.0 mm 0.00 in0.0 mm 0.00 in0.0 mm
01:04 PM 76.2°F24.6°C 62.2°F16.8°C 62% 20.0 mph S32.2 kmh S 20.0 mph32.2 kmh 29.80 in1009.1 mb 0.00 in0.0 mm 0.00 in0.0 mm 0.00 in0.0 mm
01:06 PM 76.3°F24.6°C 62.3°F16.8°C 62% 17.0 mph S27.4 kmh S 24.0 mph38.6 kmh 29.80 in1009.1 mb 0.00 in0.0 mm 0.00 in0.0 mm 0.00 in0.0 mm
01:08 PM 76.5°F24.7°C 62.1°F16.7°C 61% 11.0 mph S17.7 kmh S 24.0 mph38.6 kmh 29.80 in1009.1 mb 0.00 in0.0 mm 0.00 in0.0 mm 0.00 in0.0 mm
01:10 PM 76.5°F24.7°C 62.1°F16.7°C 61% 9.0 mph SE14.5 kmh SE 24.0 mph38.6 kmh 29.80 in1009.1 mb 0.00 in0.0 mm 0.00 in0.0 mm 0.00 in0.0 mm
01:12 PM 76.4°F24.7°C 62.0°F16.7°C 61% 8.0 mph S12.9 kmh S 24.0 mph38.6 kmh 29.80 in1009.1 mb 0.00 in0.0 mm 0.00 in0.0 mm 0.00 in0.0 mm
01:14 PM 76.4°F24.7°C 62.0°F16.7°C 61% 10.0 mph SSW16.1 kmh SSW 24.0 mph38.6 kmh 29.80 in1009.1 mb 0.00 in0.0 mm 0.00 in0.0 mm 0.00 in0.0 mm
01:16 PM 76.3°F24.6°C 61.9°F16.6°C 61% 11.0 mph SW17.7 kmh SW 24.0 mph38.6 kmh 29.80 in1009.1 mb 0.00 in0.0 mm 0.00 in0.0 mm 0.00 in0.0 mm
01:18 PM 76.2°F24.6°C 61.8°F16.6°C 61% 13.0 mph SW20.9 kmh SW 24.0 mph38.6 kmh 29.80 in1009.1 mb 0.00 in0.0 mm 0.00 in0.0 mm 0.00 in0.0 mm
01:20 PM 76.0°F24.4°C 61.6°F16.4°C 61% 10.0 mph SSW16.1 kmh SSW 24.0 mph38.6 kmh 29.80 in1009.1 mb 0.00 in0.0 mm 0.00 in0.0 mm 0.00 in0.0 mm
01:22 PM 76.0°F24.4°C 62.1°F16.7°C 62% 7.0 mph S11.3 kmh S 24.0 mph38.6 kmh 29.80 in1009.1 mb 0.00 in0.0 mm 0.00 in0.0 mm 0.00 in0.0 mm
01:24 PM 75.9°F24.4°C 62.0°F16.7°C 62% 16.0 mph SSW25.7 kmh SSW 24.0 mph38.6 kmh 29.80 in1009.1 mb 0.00 in0.0 mm 0.00 in0.0 mm 0.00 in0.0 mm
01:26 PM 75.8°F24.3°C 61.9°F16.6°C 62% 10.0 mph SW16.1 kmh SW 24.0 mph38.6 kmh 29.80 in1009.1 mb 0.00 in0.0 mm 0.00 in0.0 mm 0.00 in0.0 mm
01:28 PM 75.7°F24.3°C 62.2°F16.8°C 63% 10.0 mph SSW16.1 kmh SSW 24.0 mph38.6 kmh 29.80 in1009.1 mb 0.00 in0.0 mm 0.00 in0.0 mm 0.00 in0.0 mm
01:30 PM 75.6°F24.2°C 62.1°F16.7°C 63% 12.0 mph S19.3 kmh S 24.0 mph38.6 kmh 29.80 in1009.1 mb 0.00 in0.0 mm 0.00 in0.0 mm 0.00 in0.0 mm
01:32 PM 75.6°F24.2°C 62.1°F16.7°C 63% 13.0 mph SSW20.9 kmh SSW 24.0 mph38.6 kmh 29.80 in1009.1 mb 0.00 in0.0 mm 0.00 in0.0 mm 0.00 in0.0 mm
01:34 PM 75.4°F24.1°C 62.4°F16.9°C 64% 8.0 mph SSW12.9 kmh SSW 12.0 mph19.3 kmh 29.80 in1009.1 mb 0.00 in0.0 mm 0.00 in0.0 mm 0.00 in0.0 mm
01:36 PM 75.5°F24.2°C 62.5°F16.9°C 64% 12.0 mph S19.3 kmh S 13.0 mph20.9 kmh 29.80 in1009.1 mb 0.00 in0.0 mm 0.00 in0.0 mm 0.00 in0.0 mm
01:38 PM 75.4°F24.1°C 62.4°F16.9°C 64% 7.0 mph S11.3 kmh S 13.0 mph20.9 kmh 29.80 in1009.1 mb 0.00 in0.0 mm 0.00 in0.0 mm 0.00 in0.0 mm
01:40 PM 75.4°F24.1°C 62.4°F16.9°C 64% 5.0 mph S8.0 kmh S 13.0 mph20.9 kmh 29.80 in1009.1 mb 0.00 in0.0 mm 0.00 in0.0 mm 0.00 in0.0 mm
01:42 PM 75.4°F24.1°C 62.4°F16.9°C 64% 5.0 mph S8.0 kmh S 13.0 mph20.9 kmh 29.80 in1009.1 mb 0.00 in0.0 mm 0.00 in0.0 mm 0.00 in0.0 mm
01:44 PM 75.4°F24.1°C 62.8°F17.1°C 65% 6.0 mph SSW9.7 kmh SSW 13.0 mph20.9 kmh 29.80 in1009.1 mb 0.00 in0.0 mm 0.00 in0.0 mm 0.00 in0.0 mm
01:46 PM 75.4°F24.1°C 62.8°F17.1°C 65% 9.0 mph S14.5 kmh S 13.0 mph20.9 kmh 29.80 in1009.1 mb 0.00 in0.0 mm 0.00 in0.0 mm 0.00 in0.0 mm
01:48 PM 75.3°F24.1°C 62.7°F17.1°C 65% 7.0 mph S11.3 kmh S 13.0 mph20.9 kmh 29.80 in1009.1 mb 0.00 in0.0 mm 0.00 in0.0 mm 0.00 in0.0 mm
01:50 PM 75.2°F24.0°C 63.1°F17.3°C 66% 12.0 mph S19.3 kmh S 13.0 mph20.9 kmh 29.80 in1009.1 mb 0.00 in0.0 mm 0.00 in0.0 mm 0.00 in0.0 mm
01:52 PM 75.1°F23.9°C 63.0°F17.2°C 66% 13.0 mph S20.9 kmh S 13.0 mph20.9 kmh 29.80 in1009.1 mb 0.00 in0.0 mm 0.00 in0.0 mm 0.00 in0.0 mm
01:54 PM 75.0°F23.9°C 62.9°F17.2°C 66% 5.0 mph S8.0 kmh S 13.0 mph20.9 kmh 29.79 in1008.8 mb 0.00 in0.0 mm 0.00 in0.0 mm 0.00 in0.0 mm
01:56 PM 75.0°F23.9°C 62.9°F17.2°C 66% 9.0 mph S14.5 kmh S 13.0 mph20.9 kmh 29.79 in1008.8 mb 0.00 in0.0 mm 0.00 in0.0 mm 0.00 in0.0 mm
01:58 PM 75.0°F23.9°C 62.9°F17.2°C 66% 8.0 mph S12.9 kmh S 14.0 mph22.5 kmh 29.79 in1008.8 mb 0.00 in0.0 mm 0.00 in0.0 mm 0.00 in0.0 mm
02:00 PM 75.0°F23.9°C 62.9°F17.2°C 66% 9.0 mph S14.5 kmh S 14.0 mph22.5 kmh 29.79 in1008.8 mb 0.00 in0.0 mm 0.00 in0.0 mm 0.00 in0.0 mm
02:02 PM 74.9°F23.8°C 62.8°F17.1°C 66% 11.0 mph S17.7 kmh S 14.0 mph22.5 kmh 29.79 in1008.8 mb 0.00 in0.0 mm 0.00 in0.0 mm 0.00 in0.0 mm
02:04 PM 74.9°F23.8°C 62.8°F17.1°C 66% 7.0 mph S11.3 kmh S 13.0 mph20.9 kmh 29.79 in1008.8 mb 0.00 in0.0 mm 0.00 in0.0 mm 0.00 in0.0 mm
02:06 PM 74.9°F23.8°C 62.8°F17.1°C 66% 8.0 mph SSE12.9 kmh SSE 13.0 mph20.9 kmh 29.79 in1008.8 mb 0.00 in0.0 mm 0.00 in0.0 mm 0.00 in0.0 mm
02:08 PM 75.0°F23.9°C 62.9°F17.2°C 66% 6.0 mph SSE9.7 kmh SSE 13.0 mph20.9 kmh 29.79 in1008.8 mb 0.00 in0.0 mm 0.00 in0.0 mm 0.00 in0.0 mm
02:10 PM 75.0°F23.9°C 62.9°F17.2°C 66% 6.0 mph S9.7 kmh S 13.0 mph20.9 kmh 29.79 in1008.8 mb 0.00 in0.0 mm 0.00 in0.0 mm 0.00 in0.0 mm
02:12 PM 75.0°F23.9°C 62.9°F17.2°C 66% 10.0 mph SSW16.1 kmh SSW 13.0 mph20.9 kmh 29.79 in1008.8 mb 0.00 in0.0 mm 0.00 in0.0 mm 0.00 in0.0 mm
02:14 PM 75.0°F23.9°C 62.9°F17.2°C 66% 6.0 mph SSE9.7 kmh SSE 15.0 mph24.1 kmh 29.79 in1008.8 mb 0.00 in0.0 mm 0.00 in0.0 mm 0.00 in0.0 mm
02:16 PM 75.0°F23.9°C 62.9°F17.2°C 66% 10.0 mph SSE16.1 kmh SSE 15.0 mph24.1 kmh 29.79 in1008.8 mb 0.00 in0.0 mm 0.00 in0.0 mm 0.00 in0.0 mm
02:18 PM 75.0°F23.9°C 62.9°F17.2°C 66% 7.0 mph S11.3 kmh S 15.0 mph24.1 kmh 29.79 in1008.8 mb 0.00 in0.0 mm 0.00 in0.0 mm 0.00 in0.0 mm
02:20 PM 75.0°F23.9°C 62.9°F17.2°C 66% 7.0 mph S11.3 kmh S 15.0 mph24.1 kmh 29.79 in1008.8 mb 0.00 in0.0 mm 0.00 in0.0 mm 0.00 in0.0 mm
02:22 PM 75.1°F23.9°C 63.0°F17.2°C 66% 8.0 mph S12.9 kmh S 15.0 mph24.1 kmh 29.79 in1008.8 mb 0.00 in0.0 mm 0.00 in0.0 mm 0.00 in0.0 mm
02:24 PM 75.1°F23.9°C 63.0°F17.2°C 66% 3.0 mph S4.8 kmh S 15.0 mph24.1 kmh 29.79 in1008.8 mb 0.00 in0.0 mm 0.00 in0.0 mm 0.00 in0.0 mm
02:26 PM 75.1°F23.9°C 63.0°F17.2°C 66% 4.0 mph SSW6.4 kmh SSW 15.0 mph24.1 kmh 29.79 in1008.8 mb 0.00 in0.0 mm 0.00 in0.0 mm 0.00 in0.0 mm
02:28 PM 75.1°F23.9°C 63.0°F17.2°C 66% 6.0 mph S9.7 kmh S 15.0 mph24.1 kmh 29.79 in1008.8 mb 0.00 in0.0 mm 0.00 in0.0 mm 0.00 in0.0 mm
02:30 PM 75.1°F23.9°C 63.0°F17.2°C 66% 6.0 mph SSW9.7 kmh SSW 15.0 mph24.1 kmh 29.79 in1008.8 mb 0.00 in0.0 mm 0.00 in0.0 mm 0.00 in0.0 mm
02:32 PM 75.2°F24.0°C 63.1°F17.3°C 66% 9.0 mph SE14.5 kmh SE 15.0 mph24.1 kmh 29.79 in1008.8 mb 0.00 in0.0 mm 0.00 in0.0 mm 0.00 in0.0 mm
02:34 PM 75.2°F24.0°C 63.1°F17.3°C 66% 5.0 mph SE8.0 kmh SE 9.0 mph14.5 kmh 29.78 in1008.5 mb 0.00 in0.0 mm 0.00 in0.0 mm 0.00 in0.0 mm
02:36 PM 75.2°F24.0°C 63.1°F17.3°C 66% 3.0 mph S4.8 kmh S 9.0 mph14.5 kmh 29.79 in1008.8 mb 0.00 in0.0 mm 0.00 in0.0 mm 0.00 in0.0 mm
02:38 PM 75.3°F24.1°C 63.2°F17.3°C 66% 4.0 mph SSW6.4 kmh SSW 10.0 mph16.1 kmh 29.78 in1008.5 mb 0.00 in0.0 mm 0.00 in0.0 mm 0.00 in0.0 mm
02:40 PM 75.3°F24.1°C 63.2°F17.3°C 66% 5.0 mph S8.0 kmh S 10.0 mph16.1 kmh 29.79 in1008.8 mb 0.00 in0.0 mm 0.00 in0.0 mm 0.00 in0.0 mm
02:42 PM 75.2°F24.0°C 62.6°F17.0°C 65% 8.0 mph SSW12.9 kmh SSW 13.0 mph20.9 kmh 29.79 in1008.8 mb 0.00 in0.0 mm 0.00 in0.0 mm 0.00 in0.0 mm
02:44 PM 75.2°F24.0°C 62.6°F17.0°C 65% 6.0 mph SSW9.7 kmh SSW 13.0 mph20.9 kmh 29.79 in1008.8 mb 0.00 in0.0 mm 0.00 in0.0 mm 0.00 in0.0 mm
02:46 PM 75.2°F24.0°C 62.6°F17.0°C 65% 4.0 mph S6.4 kmh S 13.0 mph20.9 kmh 29.78 in1008.5 mb 0.00 in0.0 mm 0.00 in0.0 mm 0.00 in0.0 mm
02:48 PM 75.2°F24.0°C 62.6°F17.0°C 65% 5.0 mph S8.0 kmh S 13.0 mph20.9 kmh 29.79 in1008.8 mb 0.00 in0.0 mm 0.00 in0.0 mm 0.00 in0.0 mm
02:50 PM 75.2°F24.0°C 62.6°F17.0°C 65% 5.0 mph S8.0 kmh S 13.0 mph20.9 kmh 29.78 in1008.5 mb 0.00 in0.0 mm 0.00 in0.0 mm 0.00 in0.0 mm
02:52 PM 75.2°F24.0°C 62.6°F17.0°C 65% 8.0 mph S12.9 kmh S 13.0 mph20.9 kmh 29.78 in1008.5 mb 0.00 in0.0 mm 0.00 in0.0 mm 0.00 in0.0 mm
02:54 PM 75.2°F24.0°C 62.6°F17.0°C 65% 6.0 mph S9.7 kmh S 13.0 mph20.9 kmh 29.79 in1008.8 mb 0.00 in0.0 mm 0.00 in0.0 mm 0.00 in0.0 mm
02:56 PM 75.3°F24.1°C 62.7°F17.1°C 65% 7.0 mph SW11.3 kmh SW 13.0 mph20.9 kmh 29.79 in1008.8 mb 0.00 in0.0 mm 0.00 in0.0 mm 0.00 in0.0 mm
02:58 PM 75.3°F24.1°C 62.7°F17.1°C 65% 8.0 mph S12.9 kmh S 13.0 mph20.9 kmh 29.79 in1008.8 mb 0.00 in0.0 mm 0.00 in0.0 mm 0.00 in0.0 mm
03:00 PM 75.3°F24.1°C 62.7°F17.1°C 65% 7.0 mph SSW11.3 kmh SSW 13.0 mph20.9 kmh 29.79 in1008.8 mb 0.00 in0.0 mm 0.00 in0.0 mm 0.00 in0.0 mm
03:02 PM 75.2°F24.0°C 62.6°F17.0°C 65% 10.0 mph S16.1 kmh S 13.0 mph20.9 kmh 29.79 in1008.8 mb 0.00 in0.0 mm 0.00 in0.0 mm 0.00 in0.0 mm
03:04 PM 75.3°F24.1°C 62.7°F17.1°C 65% 6.0 mph S9.7 kmh S 8.0 mph12.9 kmh 29.79 in1008.8 mb 0.00 in0.0 mm 0.00 in0.0 mm 0.00 in0.0 mm
03:06 PM 75.3°F24.1°C 62.7°F17.1°C 65% 6.0 mph SSW9.7 kmh SSW 8.0 mph12.9 kmh 29.79 in1008.8 mb 0.00 in0.0 mm 0.00 in0.0 mm 0.00 in0.0 mm
03:08 PM 75.3°F24.1°C 62.7°F17.1°C 65% 3.0 mph SSW4.8 kmh SSW 8.0 mph12.9 kmh 29.79 in1008.8 mb 0.00 in0.0 mm 0.00 in0.0 mm 0.00 in0.0 mm
03:10 PM 75.2°F24.0°C 62.6°F17.0°C 65% 8.0 mph SW12.9 kmh SW 11.0 mph17.7 kmh 29.79 in1008.8 mb 0.00 in0.0 mm 0.00 in0.0 mm 0.00 in0.0 mm
03:12 PM 75.3°F24.1°C 62.7°F17.1°C 65% 6.0 mph S9.7 kmh S 11.0 mph17.7 kmh 29.79 in1008.8 mb 0.00 in0.0 mm 0.00 in0.0 mm 0.00 in0.0 mm
03:14 PM 75.2°F24.0°C 62.6°F17.0°C 65% 6.0 mph S9.7 kmh S 11.0 mph17.7 kmh 29.79 in1008.8 mb 0.00 in0.0 mm 0.00 in0.0 mm 0.00 in0.0 mm
03:16 PM 75.3°F24.1°C 62.7°F17.1°C 65% 1.0 mph S1.6 kmh S 11.0 mph17.7 kmh 29.79 in1008.8 mb 0.00 in0.0 mm 0.00 in0.0 mm 0.00 in0.0 mm
03:18 PM 75.2°F24.0°C 62.6°F17.0°C 65% 6.0 mph SSE9.7 kmh SSE 11.0 mph17.7 kmh 29.79 in1008.8 mb 0.00 in0.0 mm 0.00 in0.0 mm 0.00 in0.0 mm
03:20 PM 75.2°F24.0°C 62.6°F17.0°C 65% 7.0 mph SSW11.3 kmh SSW 11.0 mph17.7 kmh 29.79 in1008.8 mb 0.00 in0.0 mm 0.00 in0.0 mm 0.00 in0.0 mm
03:21 PM 75.2°F24.0°C 62.6°F17.0°C 65% 7.0 mph SW11.3 kmh SW 11.0 mph17.7 kmh 29.79 in1008.8 mb 0.00 in0.0 mm 0.00 in0.0 mm 0.00 in0.0 mm
03:23 PM 75.2°F24.0°C 62.6°F17.0°C 65% 6.0 mph S9.7 kmh S 11.0 mph17.7 kmh 29.79 in1008.8 mb 0.00 in0.0 mm 0.00 in0.0 mm 0.00 in0.0 mm
03:26 PM 75.2°F24.0°C 62.6°F17.0°C 65% 6.0 mph SW9.7 kmh SW 11.0 mph17.7 kmh 29.79 in1008.8 mb 0.00 in0.0 mm 0.00 in0.0 mm 0.00 in0.0 mm
03:28 PM 75.2°F24.0°C 62.6°F17.0°C 65% 3.0 mph SSW4.8 kmh SSW 11.0 mph17.7 kmh 29.79 in1008.8 mb 0.00 in0.0 mm 0.00 in0.0 mm 0.00 in0.0 mm
03:30 PM 75.2°F24.0°C 62.6°F17.0°C 65% 4.0 mph SSW6.4 kmh SSW 11.0 mph17.7 kmh 29.79 in1008.8 mb 0.00 in0.0 mm 0.00 in0.0 mm 0.00 in0.0 mm
03:32 PM 75.2°F24.0°C 62.6°F17.0°C 65% 4.0 mph S6.4 kmh S 11.0 mph17.7 kmh 29.79 in1008.8 mb 0.00 in0.0 mm 0.00 in0.0 mm 0.00 in0.0 mm
03:34 PM 75.2°F24.0°C 62.6°F17.0°C 65% 6.0 mph SW9.7 kmh SW 11.0 mph17.7 kmh 29.80 in1009.1 mb 0.00 in0.0 mm 0.00 in0.0 mm 0.00 in0.0 mm
03:36 PM 75.2°F24.0°C 62.6°F17.0°C 65% 4.0 mph SSW6.4 kmh SSW 11.0 mph17.7 kmh 29.79 in1008.8 mb 0.00 in0.0 mm 0.00 in0.0 mm 0.00 in0.0 mm
03:38 PM 75.2°F24.0°C 62.6°F17.0°C 65% 6.0 mph S9.7 kmh S 11.0 mph17.7 kmh 29.79 in1008.8 mb 0.00 in0.0 mm 0.00 in0.0 mm 0.00 in0.0 mm
03:40 PM 75.2°F24.0°C 62.6°F17.0°C 65% 6.0 mph SSW9.7 kmh SSW 11.0 mph17.7 kmh 29.79 in1008.8 mb 0.00 in0.0 mm 0.00 in0.0 mm 0.00 in0.0 mm
03:42 PM 75.2°F24.0°C 62.6°F17.0°C 65% 2.0 mph SSW3.2 kmh SSW 11.0 mph17.7 kmh 29.79 in1008.8 mb 0.00 in0.0 mm 0.00 in0.0 mm 0.00 in0.0 mm
03:44 PM 75.3°F24.1°C 62.7°F17.1°C 65% 2.0 mph S3.2 kmh S 11.0 mph17.7 kmh 29.79 in1008.8 mb 0.00 in0.0 mm 0.00 in0.0 mm 0.00 in0.0 mm
03:46 PM 75.2°F24.0°C 62.6°F17.0°C 65% 4.0 mph S6.4 kmh S 11.0 mph17.7 kmh 29.79 in1008.8 mb 0.00 in0.0 mm 0.00 in0.0 mm 0.00 in0.0 mm
03:48 PM 75.2°F24.0°C 62.6°F17.0°C 65% 4.0 mph S6.4 kmh S 11.0 mph17.7 kmh 29.79 in1008.8 mb 0.00 in0.0 mm 0.00 in0.0 mm 0.00 in0.0 mm
03:50 PM 75.2°F24.0°C 62.6°F17.0°C 65% 4.0 mph SW6.4 kmh SW 11.0 mph17.7 kmh 29.79 in1008.8 mb 0.00 in0.0 mm 0.00 in0.0 mm 0.00 in0.0 mm
03:52 PM 75.2°F24.0°C 62.6°F17.0°C 65% 3.0 mph S4.8 kmh S 11.0 mph17.7 kmh 29.80 in1009.1 mb 0.00 in0.0 mm 0.00 in0.0 mm 0.00 in0.0 mm
03:54 PM 75.2°F24.0°C 62.6°F17.0°C 65% 5.0 mph SSW8.0 kmh SSW 11.0 mph17.7 kmh 29.79 in1008.8 mb 0.00 in0.0 mm 0.00 in0.0 mm 0.00 in0.0 mm
03:56 PM 75.2°F24.0°C 62.6°F17.0°C 65% 4.0 mph SW6.4 kmh SW 11.0 mph17.7 kmh 29.80 in1009.1 mb 0.00 in0.0 mm 0.00 in0.0 mm 0.00 in0.0 mm
03:58 PM 75.2°F24.0°C 62.6°F17.0°C 65% 3.0 mph SSW4.8 kmh SSW 11.0 mph17.7 kmh 29.79 in1008.8 mb 0.00 in0.0 mm 0.00 in0.0 mm 0.00 in0.0 mm
04:00 PM 75.2°F24.0°C 62.6°F17.0°C 65% 3.0 mph S4.8 kmh S 11.0 mph17.7 kmh 29.80 in1009.1 mb 0.00 in0.0 mm 0.00 in0.0 mm 0.00 in0.0 mm
04:02 PM 75.3°F24.1°C 62.7°F17.1°C 65% 3.0 mph S4.8 kmh S 11.0 mph17.7 kmh 29.79 in1008.8 mb 0.00 in0.0 mm 0.00 in0.0 mm 0.00 in0.0 mm
04:04 PM 75.2°F24.0°C 62.6°F17.0°C 65% 2.0 mph S3.2 kmh S 3.0 mph4.8 kmh 29.80 in1009.1 mb 0.00 in0.0 mm 0.00 in0.0 mm 0.00 in0.0 mm
04:06 PM 75.2°F24.0°C 62.6°F17.0°C 65% 3.0 mph S4.8 kmh S 4.0 mph6.4 kmh 29.80 in1009.1 mb 0.00 in0.0 mm 0.00 in0.0 mm 0.00 in0.0 mm
04:08 PM 75.2°F24.0°C 62.6°F17.0°C 65% 3.0 mph S4.8 kmh S 4.0 mph6.4 kmh 29.80 in1009.1 mb 0.00 in0.0 mm 0.00 in0.0 mm 0.00 in0.0 mm
04:10 PM 75.2°F24.0°C 62.6°F17.0°C 65% 2.0 mph S3.2 kmh S 4.0 mph6.4 kmh 29.80 in1009.1 mb 0.00 in0.0 mm 0.00 in0.0 mm 0.00 in0.0 mm
04:12 PM 75.2°F24.0°C 62.6°F17.0°C 65% 2.0 mph SSW3.2 kmh SSW 4.0 mph6.4 kmh 29.80 in1009.1 mb 0.00 in0.0 mm 0.00 in0.0 mm 0.00 in0.0 mm
04:14 PM 75.2°F24.0°C 62.6°F17.0°C 65% 5.0 mph S8.0 kmh S 5.0 mph8.0 kmh 29.80 in1009.1 mb 0.00 in0.0 mm 0.00 in0.0 mm 0.00 in0.0 mm
04:16 PM 75.2°F24.0°C 62.6°F17.0°C 65% 4.0 mph S6.4 kmh S 5.0 mph8.0 kmh 29.80 in1009.1 mb 0.00 in0.0 mm 0.00 in0.0 mm 0.00 in0.0 mm
04:18 PM 75.2°F24.0°C 62.6°F17.0°C 65% 2.0 mph S3.2 kmh S 5.0 mph8.0 kmh 29.80 in1009.1 mb 0.00 in0.0 mm 0.00 in0.0 mm 0.00 in0.0 mm
04:20 PM 75.2°F24.0°C 62.6°F17.0°C 65% 2.0 mph S3.2 kmh S 5.0 mph8.0 kmh 29.80 in1009.1 mb 0.00 in0.0 mm 0.00 in0.0 mm 0.00 in0.0 mm
04:22 PM 75.2°F24.0°C 62.6°F17.0°C 65% 2.0 mph S3.2 kmh S 5.0 mph8.0 kmh 29.80 in1009.1 mb 0.00 in0.0 mm 0.00 in0.0 mm 0.00 in0.0 mm
04:24 PM 75.1°F23.9°C 62.5°F16.9°C 65% 1.0 mph S1.6 kmh S 5.0 mph8.0 kmh 29.80 in1009.1 mb 0.00 in0.0 mm 0.00 in0.0 mm 0.00 in0.0 mm
04:26 PM 75.1°F23.9°C 62.5°F16.9°C 65% 1.0 mph S1.6 kmh S 5.0 mph8.0 kmh 29.80 in1009.1 mb 0.00 in0.0 mm 0.00 in0.0 mm 0.00 in0.0 mm
04:28 PM 75.1°F23.9°C 62.5°F16.9°C 65% 1.0 mph SSE1.6 kmh SSE 5.0 mph8.0 kmh 29.80 in1009.1 mb 0.00 in0.0 mm 0.00 in0.0 mm 0.00 in0.0 mm
04:30 PM 75.1°F23.9°C 62.5°F16.9°C 65% 3.0 mph S4.8 kmh S 5.0 mph8.0 kmh 29.80 in1009.1 mb 0.00 in0.0 mm 0.00 in0.0 mm 0.00 in0.0 mm
04:32 PM 75.1°F23.9°C 62.5°F16.9°C 65% 1.0 mph S1.6 kmh S 5.0 mph8.0 kmh 29.80 in1009.1 mb 0.00 in0.0 mm 0.00 in0.0 mm 0.00 in0.0 mm
04:34 PM 75.1°F23.9°C 62.5°F16.9°C 65% 2.0 mph S3.2 kmh S 4.0 mph6.4 kmh 29.80 in1009.1 mb 0.00 in0.0 mm 0.00 in0.0 mm 0.00 in0.0 mm
04:36 PM 75.1°F23.9°C 62.5°F16.9°C 65% 2.0 mph S3.2 kmh S 4.0 mph6.4 kmh 29.80 in1009.1 mb 0.00 in0.0 mm 0.00 in0.0 mm 0.00 in0.0 mm
04:38 PM 75.0°F23.9°C 62.5°F16.9°C 65% 2.0 mph SSE3.2 kmh SSE 4.0 mph6.4 kmh 29.80 in1009.1 mb 0.00 in0.0 mm 0.00 in0.0 mm 0.00 in0.0 mm
04:40 PM 75.1°F23.9°C 62.5°F16.9°C 65% 4.0 mph S6.4 kmh S 9.0 mph14.5 kmh 29.80 in1009.1 mb 0.00 in0.0 mm 0.00 in0.0 mm 0.00 in0.0 mm
04:42 PM 75.0°F23.9°C 62.5°F16.9°C 65% 6.0 mph SE9.7 kmh SE 9.0 mph14.5 kmh 29.81 in1009.5 mb 0.00 in0.0 mm 0.00 in0.0 mm 0.00 in0.0 mm
04:44 PM 75.0°F23.9°C 62.9°F17.2°C 66% 4.0 mph SE6.4 kmh SE 9.0 mph14.5 kmh 29.81 in1009.5 mb 0.00 in0.0 mm 0.00 in0.0 mm 0.00 in0.0 mm
04:46 PM 74.9°F23.8°C 63.6°F17.6°C 68% 3.0 mph SSE4.8 kmh SSE 9.0 mph14.5 kmh 29.81 in1009.5 mb 0.00 in0.0 mm 0.00 in0.0 mm 0.00 in0.0 mm
04:48 PM 74.7°F23.7°C 63.5°F17.5°C 68% 5.0 mph S8.0 kmh S 10.0 mph16.1 kmh 29.81 in1009.5 mb 0.00 in0.0 mm 0.00 in0.0 mm 0.00 in0.0 mm
04:50 PM 74.6°F23.7°C 63.8°F17.7°C 69% 3.0 mph S4.8 kmh S 10.0 mph16.1 kmh 29.81 in1009.5 mb 0.00 in0.0 mm 0.00 in0.0 mm 0.00 in0.0 mm
04:52 PM 74.4°F23.6°C 64.0°F17.8°C 70% 7.0 mph S11.3 kmh S 13.0 mph20.9 kmh 29.81 in1009.5 mb 0.00 in0.0 mm 0.00 in0.0 mm 0.00 in0.0 mm
04:54 PM 74.3°F23.5°C 63.9°F17.7°C 70% 6.0 mph S9.7 kmh S 13.0 mph20.9 kmh 29.81 in1009.5 mb 0.00 in0.0 mm 0.00 in0.0 mm 0.00 in0.0 mm
04:56 PM 74.2°F23.4°C 64.2°F17.9°C 71% 6.0 mph SSE9.7 kmh SSE 13.0 mph20.9 kmh 29.81 in1009.5 mb 0.00 in0.0 mm 0.00 in0.0 mm 0.00 in0.0 mm
04:58 PM 74.1°F23.4°C 64.1°F17.8°C 71% 5.0 mph SE8.0 kmh SE 13.0 mph20.9 kmh 29.81 in1009.5 mb 0.00 in0.0 mm 0.00 in0.0 mm 0.00 in0.0 mm
05:00 PM 74.0°F23.3°C 64.0°F17.8°C 71% 5.0 mph S8.0 kmh S 13.0 mph20.9 kmh 29.82 in1009.8 mb 0.00 in0.0 mm 0.00 in0.0 mm 0.00 in0.0 mm
05:02 PM 73.9°F23.3°C 64.3°F17.9°C 72% 8.0 mph S12.9 kmh S 13.0 mph20.9 kmh 29.82 in1009.8 mb 0.00 in0.0 mm 0.00 in0.0 mm 0.00 in0.0 mm
05:04 PM 73.7°F23.2°C 64.1°F17.8°C 72% 8.0 mph SSW12.9 kmh SSW 15.0 mph24.1 kmh 29.82 in1009.8 mb 0.00 in0.0 mm 0.00 in0.0 mm 0.00 in0.0 mm
05:06 PM 73.6°F23.1°C 64.0°F17.8°C 72% 4.0 mph SE6.4 kmh SE 15.0 mph24.1 kmh 29.82 in1009.8 mb 0.00 in0.0 mm 0.00 in0.0 mm 0.00 in0.0 mm
05:08 PM 73.5°F23.1°C 64.3°F17.9°C 73% 5.0 mph S8.0 kmh S 15.0 mph24.1 kmh 29.82 in1009.8 mb 0.00 in0.0 mm 0.00 in0.0 mm 0.00 in0.0 mm
05:10 PM 73.3°F22.9°C 64.5°F18.1°C 74% 7.0 mph SSE11.3 kmh SSE 15.0 mph24.1 kmh 29.82 in1009.8 mb 0.00 in0.0 mm 0.00 in0.0 mm 0.00 in0.0 mm
05:12 PM 73.2°F22.9°C 64.8°F18.2°C 75% 4.0 mph SSW6.4 kmh SSW 15.0 mph24.1 kmh 29.82 in1009.8 mb 0.00 in0.0 mm 0.00 in0.0 mm 0.00 in0.0 mm
05:14 PM 73.1°F22.8°C 64.7°F18.2°C 75% 8.0 mph S12.9 kmh S 15.0 mph24.1 kmh 29.82 in1009.8 mb 0.00 in0.0 mm 0.00 in0.0 mm 0.00 in0.0 mm
05:16 PM 72.9°F22.7°C 64.5°F18.1°C 75% 6.0 mph SSW9.7 kmh SSW 15.0 mph24.1 kmh 29.82 in1009.8 mb 0.00 in0.0 mm 0.00 in0.0 mm 0.00 in0.0 mm
05:18 PM 72.8°F22.7°C 64.8°F18.2°C 76% 7.0 mph SSW11.3 kmh SSW 15.0 mph24.1 kmh 29.82 in1009.8 mb 0.00 in0.0 mm 0.00 in0.0 mm 0.00 in0.0 mm
05:20 PM 72.8°F22.7°C 64.8°F18.2°C 76% 1.0 mph S1.6 kmh S 15.0 mph24.1 kmh 29.82 in1009.8 mb 0.00 in0.0 mm 0.00 in0.0 mm 0.00 in0.0 mm
05:22 PM 72.6°F22.6°C 64.6°F18.1°C 76% 4.0 mph S6.4 kmh S 15.0 mph24.1 kmh 29.82 in1009.8 mb 0.00 in0.0 mm 0.00 in0.0 mm 0.00 in0.0 mm
05:24 PM 72.6°F22.6°C 64.6°F18.1°C 76% 4.0 mph S6.4 kmh S 15.0 mph24.1 kmh 29.82 in1009.8 mb 0.00 in0.0 mm 0.00 in0.0 mm 0.00 in0.0 mm
05:26 PM 72.5°F22.5°C 64.5°F18.1°C 76% 2.0 mph S3.2 kmh S 15.0 mph24.1 kmh 29.82 in1009.8 mb 0.00 in0.0 mm 0.00 in0.0 mm 0.00 in0.0 mm
05:27 PM 72.5°F22.5°C 64.9°F18.3°C 77% 4.0 mph S6.4 kmh S 15.0 mph24.1 kmh 29.82 in1009.8 mb 0.00 in0.0 mm 0.00 in0.0 mm 0.00 in0.0 mm
05:30 PM 72.4°F22.4°C 64.8°F18.2°C 77% 6.0 mph SSW9.7 kmh SSW 15.0 mph24.1 kmh 29.82 in1009.8 mb 0.00 in0.0 mm 0.00 in0.0 mm 0.00 in0.0 mm
05:32 PM 72.3°F22.4°C 64.7°F18.2°C 77% 2.0 mph SSE3.2 kmh SSE 15.0 mph24.1 kmh 29.82 in1009.8 mb 0.00 in0.0 mm 0.00 in0.0 mm 0.00 in0.0 mm
05:34 PM 72.3°F22.4°C 64.7°F18.2°C 77% 3.0 mph S4.8 kmh S 8.0 mph12.9 kmh 29.82 in1009.8 mb 0.00 in0.0 mm 0.00 in0.0 mm 0.00 in0.0 mm
05:36 PM 72.2°F22.3°C 64.6°F18.1°C 77% 6.0 mph SSE9.7 kmh SSE 8.0 mph12.9 kmh 29.82 in1009.8 mb 0.00 in0.0 mm 0.00 in0.0 mm 0.00 in0.0 mm
05:38 PM 72.2°F22.3°C 65.0°F18.3°C 78% 2.0 mph S3.2 kmh S 8.0 mph12.9 kmh 29.82 in1009.8 mb 0.00 in0.0 mm 0.00 in0.0 mm 0.00 in0.0 mm
05:40 PM 72.1°F22.3°C 64.9°F18.3°C 78% 3.0 mph S4.8 kmh S 8.0 mph12.9 kmh 29.82 in1009.8 mb 0.00 in0.0 mm 0.00 in0.0 mm 0.00 in0.0 mm
05:42 PM 72.1°F22.3°C 64.9°F18.3°C 78% 3.0 mph S4.8 kmh S 8.0 mph12.9 kmh 29.82 in1009.8 mb 0.00 in0.0 mm 0.00 in0.0 mm 0.00 in0.0 mm
05:44 PM 72.1°F22.3°C 64.9°F18.3°C 78% 4.0 mph S6.4 kmh S 8.0 mph12.9 kmh 29.82 in1009.8 mb 0.00 in0.0 mm 0.00 in0.0 mm 0.00 in0.0 mm
05:45 PM 72.1°F22.3°C 64.9°F18.3°C 78% 2.0 mph S3.2 kmh S 8.0 mph12.9 kmh 29.82 in1009.8 mb 0.00 in0.0 mm 0.00 in0.0 mm 0.00 in0.0 mm
05:48 PM 72.0°F22.2°C 64.8°F18.2°C 78% 2.0 mph S3.2 kmh S 8.0 mph12.9 kmh 29.82 in1009.8 mb 0.00 in0.0 mm 0.00 in0.0 mm 0.00 in0.0 mm
05:50 PM 72.0°F22.2°C 64.8°F18.2°C 78% 3.0 mph S4.8 kmh S 8.0 mph12.9 kmh 29.82 in1009.8 mb 0.00 in0.0 mm 0.00 in0.0 mm 0.00 in0.0 mm
05:52 PM 72.0°F22.2°C 64.8°F18.2°C 78% 1.0 mph S1.6 kmh S 8.0 mph12.9 kmh 29.82 in1009.8 mb 0.00 in0.0 mm 0.00 in0.0 mm 0.00 in0.0 mm
05:54 PM 72.0°F22.2°C 64.8°F18.2°C 78% 3.0 mph SSW4.8 kmh SSW 8.0 mph12.9 kmh 29.83 in1010.2 mb 0.00 in0.0 mm 0.00 in0.0 mm 0.00 in0.0 mm
05:56 PM 72.0°F22.2°C 64.8°F18.2°C 78% 4.0 mph SSW6.4 kmh SSW 8.0 mph12.9 kmh 29.82 in1009.8 mb 0.00 in0.0 mm 0.00 in0.0 mm 0.00 in0.0 mm
05:58 PM 72.0°F22.2°C 64.8°F18.2°C 78% 1.0 mph SSW1.6 kmh SSW 8.0 mph12.9 kmh 29.82 in1009.8 mb 0.00 in0.0 mm 0.00 in0.0 mm 0.00 in0.0 mm
06:00 PM 71.9°F22.2°C 64.7°F18.2°C 78% 3.0 mph SSW4.8 kmh SSW 8.0 mph12.9 kmh 29.82 in1009.8 mb 0.00 in0.0 mm 0.00 in0.0 mm 0.00 in0.0 mm
06:02 PM 71.9°F22.2°C 65.0°F18.3°C 79% 1.0 mph SSW1.6 kmh SSW 8.0 mph12.9 kmh 29.82 in1009.8 mb 0.00 in0.0 mm 0.00 in0.0 mm 0.00 in0.0 mm
06:04 PM 71.8°F22.1°C 64.9°F18.3°C 79% 2.0 mph SSW3.2 kmh SSW 3.0 mph4.8 kmh 29.82 in1009.8 mb 0.00 in0.0 mm 0.00 in0.0 mm 0.00 in0.0 mm
06:06 PM 71.8°F22.1°C 64.9°F18.3°C 79% 3.0 mph SSW4.8 kmh SSW 4.0 mph6.4 kmh 29.82 in1009.8 mb 0.00 in0.0 mm 0.00 in0.0 mm 0.00 in0.0 mm
06:08 PM 71.8°F22.1°C 64.9°F18.3°C 79% 3.0 mph SSW4.8 kmh SSW 4.0 mph6.4 kmh 29.82 in1009.8 mb 0.00 in0.0 mm 0.00 in0.0 mm 0.00 in0.0 mm
06:10 PM 71.6°F22.0°C 64.0°F17.8°C 77% 11.0 mph NW17.7 kmh NW 11.0 mph17.7 kmh 29.83 in1010.2 mb 0.00 in0.0 mm 0.00 in0.0 mm 0.00 in0.0 mm
06:12 PM 70.8°F21.6°C 62.1°F16.7°C 74% 6.0 mph NW9.7 kmh NW 13.0 mph20.9 kmh 29.83 in1010.2 mb 0.00 in0.0 mm 0.00 in0.0 mm 0.00 in0.0 mm
06:14 PM 69.8°F21.0°C 61.5°F16.4°C 75% 9.0 mph NW14.5 kmh NW 13.0 mph20.9 kmh 29.83 in1010.2 mb 0.00 in0.0 mm 0.00 in0.0 mm 0.00 in0.0 mm
06:16 PM 68.9°F20.5°C 61.0°F16.1°C 76% 5.0 mph N8.0 kmh N 13.0 mph20.9 kmh 29.83 in1010.2 mb 0.00 in0.0 mm 0.00 in0.0 mm 0.00 in0.0 mm
06:18 PM 68.1°F20.1°C 60.6°F15.9°C 77% 10.0 mph NNW16.1 kmh NNW 13.0 mph20.9 kmh 29.83 in1010.2 mb 0.01 in0.3 mm 0.30 in7.6 mm 0.01 in0.3 mm
06:20 PM 67.4°F19.7°C 60.3°F15.7°C 78% 8.0 mph NNW12.9 kmh NNW 13.0 mph20.9 kmh 29.83 in1010.2 mb 0.01 in0.3 mm 0.00 in0.0 mm 0.01 in0.3 mm
06:22 PM 66.4°F19.1°C 59.3°F15.2°C 78% 5.0 mph NNW8.0 kmh NNW 13.0 mph20.9 kmh 29.83 in1010.2 mb 0.04 in1.0 mm 0.90 in22.9 mm 0.04 in1.0 mm
06:24 PM 65.6°F18.7°C 58.9°F14.9°C 79% 8.0 mph NNW12.9 kmh NNW 13.0 mph20.9 kmh 29.83 in1010.2 mb 0.04 in1.0 mm 0.00 in0.0 mm 0.04 in1.0 mm
06:26 PM 64.7°F18.2°C 58.4°F14.7°C 80% 7.0 mph W11.3 kmh W 13.0 mph20.9 kmh 29.83 in1010.2 mb 0.04 in1.0 mm 0.00 in0.0 mm 0.04 in1.0 mm
06:28 PM 64.1°F17.8°C 57.8°F14.3°C 80% 13.0 mph NW20.9 kmh NW 13.0 mph20.9 kmh 29.83 in1010.2 mb 0.04 in1.0 mm 0.00 in0.0 mm 0.04 in1.0 mm
06:30 PM 63.5°F17.5°C 57.6°F14.2°C 81% 6.0 mph NW9.7 kmh NW 14.0 mph22.5 kmh 29.83 in1010.2 mb 0.04 in1.0 mm 0.00 in0.0 mm 0.04 in1.0 mm
06:32 PM 62.9°F17.2°C 57.0°F13.9°C 81% 11.0 mph NW17.7 kmh NW 14.0 mph22.5 kmh 29.83 in1010.2 mb 0.04 in1.0 mm 0.00 in0.0 mm 0.04 in1.0 mm
06:34 PM 62.5°F16.9°C 56.6°F13.7°C 81% 9.0 mph NNW14.5 kmh NNW 12.0 mph19.3 kmh 29.83 in1010.2 mb 0.04 in1.0 mm 0.00 in0.0 mm 0.04 in1.0 mm
06:36 PM 62.0°F16.7°C 56.1°F13.4°C 81% 12.0 mph NW19.3 kmh NW 15.0 mph24.1 kmh 29.84 in1010.5 mb 0.04 in1.0 mm 0.00 in0.0 mm 0.04 in1.0 mm
06:38 PM 61.6°F16.4°C 56.1°F13.4°C 82% 12.0 mph NW19.3 kmh NW 15.0 mph24.1 kmh 29.84 in1010.5 mb 0.04 in1.0 mm 0.00 in0.0 mm 0.04 in1.0 mm
06:40 PM 61.3°F16.3°C 55.8°F13.2°C 82% 11.0 mph NNW17.7 kmh NNW 15.0 mph24.1 kmh 29.84 in1010.5 mb 0.04 in1.0 mm 0.00 in0.0 mm 0.04 in1.0 mm
06:42 PM 60.9°F16.1°C 55.4°F13.0°C 82% 7.0 mph NW11.3 kmh NW 15.0 mph24.1 kmh 29.84 in1010.5 mb 0.04 in1.0 mm 0.00 in0.0 mm 0.04 in1.0 mm
06:44 PM 60.7°F15.9°C 55.2°F12.9°C 82% 12.0 mph NW19.3 kmh NW 15.0 mph24.1 kmh 29.84 in1010.5 mb 0.04 in1.0 mm 0.00 in0.0 mm 0.04 in1.0 mm
06:46 PM 60.4°F15.8°C 54.9°F12.7°C 82% 12.0 mph NW19.3 kmh NW 16.0 mph25.7 kmh 29.84 in1010.5 mb 0.04 in1.0 mm 0.00 in0.0 mm 0.04 in1.0 mm
06:48 PM 60.1°F15.6°C 54.6°F12.6°C 82% 10.0 mph NW16.1 kmh NW 16.0 mph25.7 kmh 29.84 in1010.5 mb 0.04 in1.0 mm 0.00 in0.0 mm 0.04 in1.0 mm
06:50 PM 59.8°F15.4°C 54.3°F12.4°C 82% 5.0 mph NW8.0 kmh NW 16.0 mph25.7 kmh 29.84 in1010.5 mb 0.04 in1.0 mm 0.00 in0.0 mm 0.04 in1.0 mm
06:52 PM 59.7°F15.4°C 54.5°F12.5°C 83% 4.0 mph NW6.4 kmh NW 16.0 mph25.7 kmh 29.85 in1010.8 mb 0.05 in1.3 mm 0.30 in7.6 mm 0.05 in1.3 mm
06:54 PM 59.5°F15.3°C 54.3°F12.4°C 83% 4.0 mph NNW6.4 kmh NNW 16.0 mph25.7 kmh 29.85 in1010.8 mb 0.05 in1.3 mm 0.00 in0.0 mm 0.05 in1.3 mm
06:56 PM 59.4°F15.2°C 54.2°F12.3°C 83% 10.0 mph N16.1 kmh N 16.0 mph25.7 kmh 29.85 in1010.8 mb 0.05 in1.3 mm 0.00 in0.0 mm 0.05 in1.3 mm
06:58 PM 59.2°F15.1°C 54.1°F12.3°C 83% 11.0 mph NW17.7 kmh NW 16.0 mph25.7 kmh 29.86 in1011.2 mb 0.05 in1.3 mm 0.00 in0.0 mm 0.05 in1.3 mm
06:59 PM 59.0°F15.0°C 53.9°F12.2°C 83% 13.0 mph NW20.9 kmh NW 16.0 mph25.7 kmh 29.86 in1011.2 mb 0.05 in1.3 mm 0.00 in0.0 mm 0.05 in1.3 mm
07:02 PM 58.8°F14.9°C 53.7°F12.1°C 83% 9.0 mph NW14.5 kmh NW 16.0 mph25.7 kmh 29.86 in1011.2 mb 0.05 in1.3 mm 0.00 in0.0 mm 0.05 in1.3 mm
07:04 PM 58.8°F14.9°C 54.0°F12.2°C 84% 11.0 mph NNW17.7 kmh NNW 15.0 mph24.1 kmh 29.86 in1011.2 mb 0.05 in1.3 mm 0.00 in0.0 mm 0.05 in1.3 mm
07:06 PM 58.6°F14.8°C 53.8°F12.1°C 84% 12.0 mph WNW19.3 kmh WNW 15.0 mph24.1 kmh 29.86 in1011.2 mb 0.05 in1.3 mm 0.00 in0.0 mm 0.05 in1.3 mm
07:08 PM 58.6°F14.8°C 53.8°F12.1°C 84% 8.0 mph NNW12.9 kmh NNW 15.0 mph24.1 kmh 29.86 in1011.2 mb 0.05 in1.3 mm 0.00 in0.0 mm 0.05 in1.3 mm
07:10 PM 58.4°F14.7°C 53.6°F12.0°C 84% 14.0 mph NNW22.5 kmh NNW 15.0 mph24.1 kmh 29.86 in1011.2 mb 0.05 in1.3 mm 0.00 in0.0 mm 0.05 in1.3 mm
07:12 PM 58.3°F14.6°C 53.5°F11.9°C 84% 12.0 mph N19.3 kmh N 15.0 mph24.1 kmh 29.85 in1010.8 mb 0.05 in1.3 mm 0.00 in0.0 mm 0.05 in1.3 mm
07:14 PM 58.2°F14.6°C 53.7°F12.1°C 85% 10.0 mph NW16.1 kmh NW 15.0 mph24.1 kmh 29.86 in1011.2 mb 0.05 in1.3 mm 0.00 in0.0 mm 0.05 in1.3 mm
07:16 PM 58.1°F14.5°C 53.6°F12.0°C 85% 9.0 mph NNW14.5 kmh NNW 15.0 mph24.1 kmh 29.86 in1011.2 mb 0.05 in1.3 mm 0.00 in0.0 mm 0.05 in1.3 mm
07:18 PM 58.0°F14.4°C 53.5°F11.9°C 85% 5.0 mph NW8.0 kmh NW 15.0 mph24.1 kmh 29.86 in1011.2 mb 0.05 in1.3 mm 0.00 in0.0 mm 0.05 in1.3 mm
07:20 PM 57.9°F14.4°C 53.4°F11.9°C 85% 9.0 mph NW14.5 kmh NW 15.0 mph24.1 kmh 29.86 in1011.2 mb 0.05 in1.3 mm 0.00 in0.0 mm 0.05 in1.3 mm
07:22 PM 57.8°F14.3°C 53.3°F11.8°C 85% 4.0 mph NW6.4 kmh NW 15.0 mph24.1 kmh 29.87 in1011.5 mb 0.05 in1.3 mm 0.00 in0.0 mm 0.05 in1.3 mm
07:24 PM 57.7°F14.3°C 53.2°F11.8°C 85% 7.0 mph N11.3 kmh N 15.0 mph24.1 kmh 29.87 in1011.5 mb 0.05 in1.3 mm 0.00 in0.0 mm 0.05 in1.3 mm
07:26 PM 57.7°F14.3°C 53.2°F11.8°C 85% 3.0 mph NNW4.8 kmh NNW 15.0 mph24.1 kmh 29.87 in1011.5 mb 0.06 in1.5 mm 0.30 in7.6 mm 0.06 in1.5 mm
07:28 PM 57.6°F14.2°C 53.1°F11.7°C 85% 9.0 mph NNW14.5 kmh NNW 15.0 mph24.1 kmh 29.87 in1011.5 mb 0.06 in1.5 mm 0.00 in0.0 mm 0.06 in1.5 mm
07:30 PM 57.6°F14.2°C 53.5°F11.9°C 86% 3.0 mph NW4.8 kmh NW 15.0 mph24.1 kmh 29.87 in1011.5 mb 0.06 in1.5 mm 0.00 in0.0 mm 0.06 in1.5 mm
07:32 PM 57.6°F14.2°C 53.5°F11.9°C 86% 4.0 mph NW6.4 kmh NW 15.0 mph24.1 kmh 29.87 in1011.5 mb 0.06 in1.5 mm 0.00 in0.0 mm 0.06 in1.5 mm
07:34 PM 57.6°F14.2°C 53.5°F11.9°C 86% 5.0 mph N8.0 kmh N 10.0 mph16.1 kmh 29.87 in1011.5 mb 0.02 in0.5 mm 0.00 in0.0 mm 0.06 in1.5 mm
07:36 PM 57.6°F14.2°C 53.5°F11.9°C 86% 1.0 mph NNW1.6 kmh NNW 10.0 mph16.1 kmh 29.87 in1011.5 mb 0.02 in0.5 mm 0.00 in0.0 mm 0.06 in1.5 mm
07:38 PM 57.5°F14.2°C 53.4°F11.9°C 86% 5.0 mph N8.0 kmh N 10.0 mph16.1 kmh 29.87 in1011.5 mb 0.02 in0.5 mm 0.00 in0.0 mm 0.06 in1.5 mm
07:40 PM 57.6°F14.2°C 53.5°F11.9°C 86% 6.0 mph NE9.7 kmh NE 10.0 mph16.1 kmh 29.87 in1011.5 mb 0.03 in0.8 mm 0.30 in7.6 mm 0.07 in1.8 mm
07:41 PM 57.5°F14.2°C 53.4°F11.9°C 86% 13.0 mph NNE20.9 kmh NNE 13.0 mph20.9 kmh 29.87 in1011.5 mb 0.03 in0.8 mm 0.00 in0.0 mm 0.07 in1.8 mm
07:44 PM 57.4°F14.1°C 53.3°F11.8°C 86% 13.0 mph NW20.9 kmh NW 13.0 mph20.9 kmh 29.87 in1011.5 mb 0.03 in0.8 mm 0.00 in0.0 mm 0.07 in1.8 mm
07:46 PM 57.2°F14.0°C 53.1°F11.7°C 86% 9.0 mph NNW14.5 kmh NNW 15.0 mph24.1 kmh 29.88 in1011.9 mb 0.03 in0.8 mm 0.00 in0.0 mm 0.07 in1.8 mm
07:48 PM 57.2°F14.0°C 53.1°F11.7°C 86% 5.0 mph N8.0 kmh N 15.0 mph24.1 kmh 29.88 in1011.9 mb 0.03 in0.8 mm 0.00 in0.0 mm 0.07 in1.8 mm
07:50 PM 57.1°F13.9°C 53.0°F11.7°C 86% 10.0 mph NW16.1 kmh NW 15.0 mph24.1 kmh 29.88 in1011.9 mb 0.03 in0.8 mm 0.00 in0.0 mm 0.07 in1.8 mm
07:52 PM 57.1°F13.9°C 53.0°F11.7°C 86% 10.0 mph NNW16.1 kmh NNW 15.0 mph24.1 kmh 29.88 in1011.9 mb 0.03 in0.8 mm 0.00 in0.0 mm 0.07 in1.8 mm
07:54 PM 57.0°F13.9°C 52.9°F11.6°C 86% 8.0 mph NW12.9 kmh NW 15.0 mph24.1 kmh 29.89 in1012.2 mb 0.03 in0.8 mm 0.00 in0.0 mm 0.07 in1.8 mm
07:56 PM 56.9°F13.8°C 52.8°F11.6°C 86% 11.0 mph NNW17.7 kmh NNW 15.0 mph24.1 kmh 29.89 in1012.2 mb 0.03 in0.8 mm 0.00 in0.0 mm 0.07 in1.8 mm
07:58 PM 56.9°F13.8°C 52.8°F11.6°C 86% 15.0 mph NW24.1 kmh NW 15.0 mph24.1 kmh 29.89 in1012.2 mb 0.04 in1.0 mm 0.30 in7.6 mm 0.08 in2.0 mm
08:00 PM 56.8°F13.8°C 52.7°F11.5°C 86% 6.0 mph N9.7 kmh N 15.0 mph24.1 kmh 29.88 in1011.9 mb 0.04 in1.0 mm 0.00 in0.0 mm 0.08 in2.0 mm
08:02 PM 56.8°F13.8°C 52.7°F11.5°C 86% 10.0 mph NNW16.1 kmh NNW 15.0 mph24.1 kmh 29.89 in1012.2 mb 0.04 in1.0 mm 0.00 in0.0 mm 0.08 in2.0 mm
08:04 PM 56.7°F13.7°C 52.6°F11.4°C 86% 13.0 mph NNW20.9 kmh NNW 13.0 mph20.9 kmh 29.89 in1012.2 mb 0.03 in0.8 mm 0.00 in0.0 mm 0.08 in2.0 mm
08:06 PM 56.6°F13.7°C 52.5°F11.4°C 86% 3.0 mph N4.8 kmh N 13.0 mph20.9 kmh 29.89 in1012.2 mb 0.03 in0.8 mm 0.00 in0.0 mm 0.08 in2.0 mm
08:08 PM 56.5°F13.6°C 52.4°F11.3°C 86% 13.0 mph NW20.9 kmh NW 13.0 mph20.9 kmh 29.89 in1012.2 mb 0.03 in0.8 mm 0.00 in0.0 mm 0.08 in2.0 mm
08:10 PM 56.5°F13.6°C 52.4°F11.3°C 86% 8.0 mph NNW12.9 kmh NNW 14.0 mph22.5 kmh 29.89 in1012.2 mb 0.03 in0.8 mm 0.00 in0.0 mm 0.08 in2.0 mm
08:12 PM 56.3°F13.5°C 52.2°F11.2°C 86% 11.0 mph W17.7 kmh W 16.0 mph25.7 kmh 29.89 in1012.2 mb 0.04 in1.0 mm 0.30 in7.6 mm 0.09 in2.3 mm
08:14 PM 56.3°F13.5°C 52.2°F11.2°C 86% 6.0 mph NNW9.7 kmh NNW 16.0 mph25.7 kmh 29.89 in1012.2 mb 0.04 in1.0 mm 0.00 in0.0 mm 0.09 in2.3 mm
08:16 PM 56.3°F13.5°C 52.2°F11.2°C 86% 12.0 mph NNW19.3 kmh NNW 16.0 mph25.7 kmh 29.89 in1012.2 mb 0.04 in1.0 mm 0.00 in0.0 mm 0.09 in2.3 mm
08:18 PM 56.3°F13.5°C 52.2°F11.2°C 86% 11.0 mph NNW17.7 kmh NNW 16.0 mph25.7 kmh 29.89 in1012.2 mb 0.04 in1.0 mm 0.00 in0.0 mm 0.09 in2.3 mm
08:20 PM 56.2°F13.4°C 52.1°F11.2°C 86% 6.0 mph NW9.7 kmh NW 16.0 mph25.7 kmh 29.90 in1012.5 mb 0.04 in1.0 mm 0.00 in0.0 mm 0.09 in2.3 mm
08:22 PM 56.3°F13.5°C 52.2°F11.2°C 86% 4.0 mph NW6.4 kmh NW 16.0 mph25.7 kmh 29.90 in1012.5 mb 0.04 in1.0 mm 0.00 in0.0 mm 0.09 in2.3 mm
08:24 PM 56.2°F13.4°C 52.1°F11.2°C 86% 5.0 mph NNW8.0 kmh NNW 16.0 mph25.7 kmh 29.90 in1012.5 mb 0.04 in1.0 mm 0.00 in0.0 mm 0.09 in2.3 mm
08:26 PM 56.2°F13.4°C 52.1°F11.2°C 86% 5.0 mph NNW8.0 kmh NNW 16.0 mph25.7 kmh 29.89 in1012.2 mb 0.04 in1.0 mm 0.00 in0.0 mm 0.09 in2.3 mm
08:28 PM 56.1°F13.4°C 52.0°F11.1°C 86% 9.0 mph N14.5 kmh N 16.0 mph25.7 kmh 29.89 in1012.2 mb 0.04 in1.0 mm 0.00 in0.0 mm 0.09 in2.3 mm
08:30 PM 56.1°F13.4°C 52.0°F11.1°C 86% 4.0 mph NNE6.4 kmh NNE 16.0 mph25.7 kmh 29.89 in1012.2 mb 0.04 in1.0 mm 0.00 in0.0 mm 0.09 in2.3 mm
08:32 PM 56.0°F13.3°C 51.9°F11.1°C 86% 6.0 mph NE9.7 kmh NE 16.0 mph25.7 kmh 29.89 in1012.2 mb 0.04 in1.0 mm 0.00 in0.0 mm 0.09 in2.3 mm
08:34 PM 55.9°F13.3°C 52.1°F11.2°C 87% 9.0 mph NW14.5 kmh NW 12.0 mph19.3 kmh 29.89 in1012.2 mb 0.03 in0.8 mm 0.00 in0.0 mm 0.09 in2.3 mm
08:36 PM 55.9°F13.3°C 52.1°F11.2°C 87% 10.0 mph N16.1 kmh N 13.0 mph20.9 kmh 29.89 in1012.2 mb 0.03 in0.8 mm 0.00 in0.0 mm 0.09 in2.3 mm
08:38 PM 55.8°F13.2°C 52.0°F11.1°C 87% 8.0 mph NNW12.9 kmh NNW 13.0 mph20.9 kmh 29.89 in1012.2 mb 0.03 in0.8 mm 0.00 in0.0 mm 0.09 in2.3 mm
08:40 PM 55.8°F13.2°C 52.0°F11.1°C 87% 5.0 mph NW8.0 kmh NW 13.0 mph20.9 kmh 29.90 in1012.5 mb 0.03 in0.8 mm 0.00 in0.0 mm 0.09 in2.3 mm
08:42 PM 55.7°F13.2°C 51.9°F11.1°C 87% 6.0 mph N9.7 kmh N 13.0 mph20.9 kmh 29.90 in1012.5 mb 0.03 in0.8 mm 0.00 in0.0 mm 0.09 in2.3 mm
08:44 PM 55.6°F13.1°C 51.8°F11.0°C 87% 9.0 mph NNW14.5 kmh NNW 13.0 mph20.9 kmh 29.89 in1012.2 mb 0.03 in0.8 mm 0.00 in0.0 mm 0.09 in2.3 mm
08:46 PM 55.6°F13.1°C 51.8°F11.0°C 87% 12.0 mph NNW19.3 kmh NNW 13.0 mph20.9 kmh 29.90 in1012.5 mb 0.03 in0.8 mm 0.00 in0.0 mm 0.09 in2.3 mm
08:48 PM 55.5°F13.1°C 51.4°F10.8°C 86% 10.0 mph NNW16.1 kmh NNW 14.0 mph22.5 kmh 29.89 in1012.2 mb 0.03 in0.8 mm 0.00 in0.0 mm 0.09 in2.3 mm
08:50 PM 55.3°F12.9°C 51.2°F10.7°C 86% 15.0 mph NW24.1 kmh NW 15.0 mph24.1 kmh 29.89 in1012.2 mb 0.03 in0.8 mm 0.00 in0.0 mm 0.09 in2.3 mm
08:52 PM 55.3°F12.9°C 51.5°F10.8°C 87% 13.0 mph N20.9 kmh N 15.0 mph24.1 kmh 29.89 in1012.2 mb 0.03 in0.8 mm 0.00 in0.0 mm 0.09 in2.3 mm
08:54 PM 55.3°F12.9°C 51.5°F10.8°C 87% 10.0 mph NW16.1 kmh NW 15.0 mph24.1 kmh 29.89 in1012.2 mb 0.03 in0.8 mm 0.00 in0.0 mm 0.09 in2.3 mm
08:56 PM 55.2°F12.9°C 51.4°F10.8°C 87% 6.0 mph N9.7 kmh N 15.0 mph24.1 kmh 29.89 in1012.2 mb 0.03 in0.8 mm 0.00 in0.0 mm 0.09 in2.3 mm
08:58 PM 55.2°F12.9°C 51.4°F10.8°C 87% 11.0 mph N17.7 kmh N 15.0 mph24.1 kmh 29.90 in1012.5 mb 0.03 in0.8 mm 0.00 in0.0 mm 0.09 in2.3 mm
09:00 PM 55.0°F12.8°C 51.2°F10.7°C 87% 10.0 mph NW16.1 kmh NW 16.0 mph25.7 kmh 29.90 in1012.5 mb 0.03 in0.8 mm 0.00 in0.0 mm 0.09 in2.3 mm
09:02 PM 55.0°F12.8°C 51.2°F10.7°C 87% 14.0 mph NNW22.5 kmh NNW 16.0 mph25.7 kmh 29.90 in1012.5 mb 0.03 in0.8 mm 0.00 in0.0 mm 0.09 in2.3 mm
09:04 PM 54.9°F12.7°C 51.1°F10.6°C 87% 11.0 mph NW17.7 kmh NW 13.0 mph20.9 kmh 29.90 in1012.5 mb 0.01 in0.3 mm 0.00 in0.0 mm 0.09 in2.3 mm
09:06 PM 54.9°F12.7°C 51.1°F10.6°C 87% 12.0 mph NNW19.3 kmh NNW 13.0 mph20.9 kmh 29.89 in1012.2 mb 0.01 in0.3 mm 0.00 in0.0 mm 0.09 in2.3 mm
09:08 PM 54.9°F12.7°C 51.1°F10.6°C 87% 9.0 mph NNE14.5 kmh NNE 13.0 mph20.9 kmh 29.89 in1012.2 mb 0.01 in0.3 mm 0.00 in0.0 mm 0.09 in2.3 mm
09:10 PM 54.8°F12.7°C 51.0°F10.6°C 87% 5.0 mph N8.0 kmh N 15.0 mph24.1 kmh 29.89 in1012.2 mb 0.01 in0.3 mm 0.00 in0.0 mm 0.09 in2.3 mm
09:12 PM 54.8°F12.7°C 51.0°F10.6°C 87% 4.0 mph NE6.4 kmh NE 15.0 mph24.1 kmh 29.89 in1012.2 mb 0.01 in0.3 mm 0.00 in0.0 mm 0.09 in2.3 mm
09:14 PM 54.8°F12.7°C 51.0°F10.6°C 87% 10.0 mph N16.1 kmh N 15.0 mph24.1 kmh 29.89 in1012.2 mb 0.01 in0.3 mm 0.00 in0.0 mm 0.09 in2.3 mm
09:16 PM 54.7°F12.6°C 50.9°F10.5°C 87% 10.0 mph NE16.1 kmh NE 15.0 mph24.1 kmh 29.89 in1012.2 mb 0.01 in0.3 mm 0.00 in0.0 mm 0.09 in2.3 mm
09:18 PM 54.5°F12.5°C 50.7°F10.4°C 87% 4.0 mph N6.4 kmh N 15.0 mph24.1 kmh 29.89 in1012.2 mb 0.01 in0.3 mm 0.00 in0.0 mm 0.09 in2.3 mm
09:20 PM 54.4°F12.4°C 50.6°F10.3°C 87% 5.0 mph NNW8.0 kmh NNW 15.0 mph24.1 kmh 29.89 in1012.2 mb 0.01 in0.3 mm 0.00 in0.0 mm 0.09 in2.3 mm
09:22 PM 54.4°F12.4°C 50.6°F10.3°C 87% 2.0 mph NE3.2 kmh NE 15.0 mph24.1 kmh 29.90 in1012.5 mb 0.01 in0.3 mm 0.00 in0.0 mm 0.09 in2.3 mm
09:24 PM 54.3°F12.4°C 50.5°F10.3°C 87% 4.0 mph NNW6.4 kmh NNW 15.0 mph24.1 kmh 29.90 in1012.5 mb 0.01 in0.3 mm 0.00 in0.0 mm 0.09 in2.3 mm
09:26 PM 54.2°F12.3°C 50.4°F10.2°C 87% 9.0 mph N14.5 kmh N 15.0 mph24.1 kmh 29.90 in1012.5 mb 0.01 in0.3 mm 0.00 in0.0 mm 0.09 in2.3 mm
09:28 PM 54.2°F12.3°C 50.4°F10.2°C 87% 7.0 mph N11.3 kmh N 15.0 mph24.1 kmh 29.90 in1012.5 mb 0.01 in0.3 mm 0.00 in0.0 mm 0.09 in2.3 mm
09:30 PM 54.1°F12.3°C 50.3°F10.2°C 87% 1.0 mph N1.6 kmh N 15.0 mph24.1 kmh 29.90 in1012.5 mb 0.01 in0.3 mm 0.00 in0.0 mm 0.09 in2.3 mm
09:32 PM 54.1°F12.3°C 50.3°F10.2°C 87% 3.0 mph N4.8 kmh N 15.0 mph24.1 kmh 29.90 in1012.5 mb 0.01 in0.3 mm 0.00 in0.0 mm 0.09 in2.3 mm
09:34 PM 53.9°F12.2°C 50.1°F10.1°C 87% 8.0 mph N12.9 kmh N 11.0 mph17.7 kmh 29.90 in1012.5 mb 0.00 in0.0 mm 0.00 in0.0 mm 0.09 in2.3 mm
09:36 PM 53.8°F12.1°C 50.0°F10.0°C 87% 12.0 mph NNW19.3 kmh NNW 13.0 mph20.9 kmh 29.90 in1012.5 mb 0.00 in0.0 mm 0.00 in0.0 mm 0.09 in2.3 mm
09:38 PM 53.7°F12.1°C 49.9°F9.9°C 87% 6.0 mph N9.7 kmh N 13.0 mph20.9 kmh 29.90 in1012.5 mb 0.00 in0.0 mm 0.00 in0.0 mm 0.09 in2.3 mm
09:40 PM 53.6°F12.0°C 49.8°F9.9°C 87% 11.0 mph NNW17.7 kmh NNW 13.0 mph20.9 kmh 29.91 in1012.9 mb 0.00 in0.0 mm 0.00 in0.0 mm 0.09 in2.3 mm
09:42 PM 53.6°F12.0°C 49.8°F9.9°C 87% 4.0 mph NE6.4 kmh NE 13.0 mph20.9 kmh 29.91 in1012.9 mb 0.00 in0.0 mm 0.00 in0.0 mm 0.09 in2.3 mm
09:44 PM 53.6°F12.0°C 49.8°F9.9°C 87% 3.0 mph N4.8 kmh N 13.0 mph20.9 kmh 29.91 in1012.9 mb 0.00 in0.0 mm 0.00 in0.0 mm 0.09 in2.3 mm
09:46 PM 53.5°F11.9°C 49.7°F9.8°C 87% 10.0 mph N16.1 kmh N 13.0 mph20.9 kmh 29.91 in1012.9 mb 0.00 in0.0 mm 0.00 in0.0 mm 0.09 in2.3 mm
09:48 PM 53.5°F11.9°C 49.7°F9.8°C 87% 3.0 mph NNE4.8 kmh NNE 13.0 mph20.9 kmh 29.91 in1012.9 mb 0.00 in0.0 mm 0.00 in0.0 mm 0.09 in2.3 mm
09:50 PM 53.4°F11.9°C 49.6°F9.8°C 87% 5.0 mph N8.0 kmh N 13.0 mph20.9 kmh 29.91 in1012.9 mb 0.00 in0.0 mm 0.00 in0.0 mm 0.09 in2.3 mm
09:52 PM 53.4°F11.9°C 49.6°F9.8°C 87% 9.0 mph N14.5 kmh N 13.0 mph20.9 kmh 29.91 in1012.9 mb 0.00 in0.0 mm 0.00 in0.0 mm 0.09 in2.3 mm
09:54 PM 53.4°F11.9°C 49.6°F9.8°C 87% 5.0 mph NNE8.0 kmh NNE 13.0 mph20.9 kmh 29.90 in1012.5 mb 0.00 in0.0 mm 0.00 in0.0 mm 0.09 in2.3 mm
09:56 PM 53.3°F11.8°C 49.5°F9.7°C 87% 3.0 mph NNE4.8 kmh NNE 13.0 mph20.9 kmh 29.91 in1012.9 mb 0.00 in0.0 mm 0.00 in0.0 mm 0.09 in2.3 mm
09:58 PM 53.3°F11.8°C 49.5°F9.7°C 87% 2.0 mph N3.2 kmh N 13.0 mph20.9 kmh 29.91 in1012.9 mb 0.00 in0.0 mm 0.00 in0.0 mm 0.09 in2.3 mm
10:00 PM 53.3°F11.8°C 49.5°F9.7°C 87% 5.0 mph NW8.0 kmh NW 13.0 mph20.9 kmh 29.91 in1012.9 mb 0.00 in0.0 mm 0.00 in0.0 mm 0.09 in2.3 mm
10:02 PM 53.3°F11.8°C 49.5°F9.7°C 87% 4.0 mph NNE6.4 kmh NNE 13.0 mph20.9 kmh 29.91 in1012.9 mb 0.00 in0.0 mm 0.00 in0.0 mm 0.09 in2.3 mm
10:04 PM 53.3°F11.8°C 49.5°F9.7°C 87% 2.0 mph NW3.2 kmh NW 6.0 mph9.7 kmh 29.91 in1012.9 mb 0.00 in0.0 mm 0.00 in0.0 mm 0.09 in2.3 mm
10:06 PM 53.3°F11.8°C 49.5°F9.7°C 87% 4.0 mph N6.4 kmh N 11.0 mph17.7 kmh 29.91 in1012.9 mb 0.00 in0.0 mm 0.00 in0.0 mm 0.09 in2.3 mm
10:08 PM 53.2°F11.8°C 49.4°F9.7°C 87% 5.0 mph NNW8.0 kmh NNW 11.0 mph17.7 kmh 29.91 in1012.9 mb 0.00 in0.0 mm 0.00 in0.0 mm 0.09 in2.3 mm
10:10 PM 53.2°F11.8°C 49.4°F9.7°C 87% 6.0 mph NW9.7 kmh NW 11.0 mph17.7 kmh 29.91 in1012.9 mb 0.00 in0.0 mm 0.00 in0.0 mm 0.09 in2.3 mm
10:12 PM 53.1°F11.7°C 49.3°F9.6°C 87% 1.0 mph N1.6 kmh N 11.0 mph17.7 kmh 29.91 in1012.9 mb 0.00 in0.0 mm 0.00 in0.0 mm 0.09 in2.3 mm
10:14 PM 53.2°F11.8°C 49.4°F9.7°C 87% 6.0 mph NNW9.7 kmh NNW 11.0 mph17.7 kmh 29.92 in1013.2 mb 0.00 in0.0 mm 0.00 in0.0 mm 0.09 in2.3 mm
10:16 PM 53.1°F11.7°C 49.3°F9.6°C 87% 2.0 mph NNE3.2 kmh NNE 11.0 mph17.7 kmh 29.92 in1013.2 mb 0.00 in0.0 mm 0.00 in0.0 mm 0.09 in2.3 mm
10:18 PM 53.0°F11.7°C 49.2°F9.6°C 87% 10.0 mph NNW16.1 kmh NNW 11.0 mph17.7 kmh 29.92 in1013.2 mb 0.00 in0.0 mm 0.00 in0.0 mm 0.09 in2.3 mm
10:20 PM 52.9°F11.6°C 49.1°F9.5°C 87% 10.0 mph NW16.1 kmh NW 12.0 mph19.3 kmh 29.92 in1013.2 mb 0.00 in0.0 mm 0.00 in0.0 mm 0.09 in2.3 mm
10:22 PM 52.7°F11.5°C 49.0°F9.4°C 87% 8.0 mph NW12.9 kmh NW 14.0 mph22.5 kmh 29.92 in1013.2 mb 0.00 in0.0 mm 0.00 in0.0 mm 0.09 in2.3 mm
10:24 PM 52.6°F11.4°C 48.9°F9.4°C 87% 10.0 mph NNW16.1 kmh NNW 14.0 mph22.5 kmh 29.92 in1013.2 mb 0.00 in0.0 mm 0.00 in0.0 mm 0.09 in2.3 mm
10:26 PM 52.5°F11.4°C 48.8°F9.3°C 87% 10.0 mph NNE16.1 kmh NNE 16.0 mph25.7 kmh 29.92 in1013.2 mb 0.00 in0.0 mm 0.00 in0.0 mm 0.09 in2.3 mm
10:28 PM 52.3°F11.3°C 48.6°F9.2°C 87% 9.0 mph NW14.5 kmh NW 16.0 mph25.7 kmh 29.92 in1013.2 mb 0.00 in0.0 mm 0.00 in0.0 mm 0.09 in2.3 mm
10:30 PM 52.3°F11.3°C 48.6°F9.2°C 87% 8.0 mph N12.9 kmh N 16.0 mph25.7 kmh 29.92 in1013.2 mb 0.00 in0.0 mm 0.00 in0.0 mm 0.09 in2.3 mm
10:32 PM 52.2°F11.2°C 48.5°F9.2°C 87% 11.0 mph N17.7 kmh N 16.0 mph25.7 kmh 29.92 in1013.2 mb 0.00 in0.0 mm 0.00 in0.0 mm 0.09 in2.3 mm
10:34 PM 52.2°F11.2°C 48.5°F9.2°C 87% 11.0 mph NE17.7 kmh NE 11.0 mph17.7 kmh 29.92 in1013.2 mb 0.00 in0.0 mm 0.00 in0.0 mm 0.09 in2.3 mm
10:36 PM 52.2°F11.2°C 48.5°F9.2°C 87% 6.0 mph NE9.7 kmh NE 12.0 mph19.3 kmh 29.92 in1013.2 mb 0.00 in0.0 mm 0.00 in0.0 mm 0.09 in2.3 mm
10:38 PM 52.1°F11.2°C 48.4°F9.1°C 87% 5.0 mph NW8.0 kmh NW 12.0 mph19.3 kmh 29.92 in1013.2 mb 0.00 in0.0 mm 0.00 in0.0 mm 0.09 in2.3 mm
10:40 PM 52.1°F11.2°C 48.4°F9.1°C 87% 6.0 mph N9.7 kmh N 13.0 mph20.9 kmh 29.92 in1013.2 mb 0.00 in0.0 mm 0.00 in0.0 mm 0.09 in2.3 mm
10:42 PM 52.1°F11.2°C 48.4°F9.1°C 87% 3.0 mph NNW4.8 kmh NNW 13.0 mph20.9 kmh 29.92 in1013.2 mb 0.00 in0.0 mm 0.00 in0.0 mm 0.09 in2.3 mm
10:44 PM 52.1°F11.2°C 48.4°F9.1°C 87% 3.0 mph NNE4.8 kmh NNE 13.0 mph20.9 kmh 29.92 in1013.2 mb 0.00 in0.0 mm 0.00 in0.0 mm 0.09 in2.3 mm
10:46 PM 52.1°F11.2°C 48.4°F9.1°C 87% 6.0 mph NW9.7 kmh NW 13.0 mph20.9 kmh 29.92 in1013.2 mb 0.00 in0.0 mm 0.00 in0.0 mm 0.09 in2.3 mm
10:48 PM 52.1°F11.2°C 48.4°F9.1°C 87% 8.0 mph NW12.9 kmh NW 13.0 mph20.9 kmh 29.92 in1013.2 mb 0.00 in0.0 mm 0.00 in0.0 mm 0.09 in2.3 mm
10:50 PM 52.1°F11.2°C 48.4°F9.1°C 87% 6.0 mph NE9.7 kmh NE 13.0 mph20.9 kmh 29.92 in1013.2 mb 0.00 in0.0 mm 0.00 in0.0 mm 0.09 in2.3 mm
10:52 PM 52.0°F11.1°C 48.3°F9.1°C 87% 6.0 mph NNW9.7 kmh NNW 14.0 mph22.5 kmh 29.91 in1012.9 mb 0.01 in0.3 mm 0.30 in7.6 mm 0.10 in2.5 mm
10:54 PM 51.9°F11.1°C 48.2°F9.0°C 87% 8.0 mph N12.9 kmh N 14.0 mph22.5 kmh 29.91 in1012.9 mb 0.01 in0.3 mm 0.00 in0.0 mm 0.10 in2.5 mm
10:56 PM 51.9°F11.1°C 48.2°F9.0°C 87% 3.0 mph NNW4.8 kmh NNW 14.0 mph22.5 kmh 29.91 in1012.9 mb 0.01 in0.3 mm 0.00 in0.0 mm 0.10 in2.5 mm
10:58 PM 51.9°F11.1°C 48.2°F9.0°C 87% 8.0 mph NNW12.9 kmh NNW 14.0 mph22.5 kmh 29.92 in1013.2 mb 0.01 in0.3 mm 0.00 in0.0 mm 0.10 in2.5 mm
11:00 PM 51.8°F11.0°C 48.1°F8.9°C 87% 5.0 mph NNW8.0 kmh NNW 14.0 mph22.5 kmh 29.92 in1013.2 mb 0.01 in0.3 mm 0.00 in0.0 mm 0.10 in2.5 mm
11:02 PM 51.7°F10.9°C 48.0°F8.9°C 87% 10.0 mph NW16.1 kmh NW 16.0 mph25.7 kmh 29.92 in1013.2 mb 0.01 in0.3 mm 0.00 in0.0 mm 0.10 in2.5 mm
11:04 PM 51.6°F10.9°C 47.9°F8.8°C 87% 8.0 mph N12.9 kmh N 12.0 mph19.3 kmh 29.92 in1013.2 mb 0.01 in0.3 mm 0.00 in0.0 mm 0.10 in2.5 mm
11:06 PM 51.5°F10.8°C 47.8°F8.8°C 87% 17.0 mph N27.4 kmh N 17.0 mph27.4 kmh 29.93 in1013.5 mb 0.01 in0.3 mm 0.00 in0.0 mm 0.10 in2.5 mm
11:08 PM 51.3°F10.7°C 47.6°F8.7°C 87% 8.0 mph NNW12.9 kmh NNW 17.0 mph27.4 kmh 29.93 in1013.5 mb 0.01 in0.3 mm 0.00 in0.0 mm 0.10 in2.5 mm
11:10 PM 51.0°F10.6°C 47.0°F8.3°C 86% 8.0 mph N12.9 kmh N 17.0 mph27.4 kmh 29.93 in1013.5 mb 0.01 in0.3 mm 0.00 in0.0 mm 0.10 in2.5 mm
11:12 PM 51.0°F10.6°C 47.3°F8.5°C 87% 2.0 mph SE3.2 kmh SE 17.0 mph27.4 kmh 29.93 in1013.5 mb 0.01 in0.3 mm 0.00 in0.0 mm 0.10 in2.5 mm
11:14 PM 51.0°F10.6°C 47.3°F8.5°C 87% 6.0 mph N9.7 kmh N 17.0 mph27.4 kmh 29.93 in1013.5 mb 0.02 in0.5 mm 0.30 in7.6 mm 0.11 in2.8 mm
11:16 PM 50.8°F10.4°C 47.1°F8.4°C 87% 8.0 mph NNE12.9 kmh NNE 17.0 mph27.4 kmh 29.92 in1013.2 mb 0.02 in0.5 mm 0.00 in0.0 mm 0.11 in2.8 mm
11:18 PM 50.8°F10.4°C 47.1°F8.4°C 87% 5.0 mph NE8.0 kmh NE 17.0 mph27.4 kmh 29.92 in1013.2 mb 0.02 in0.5 mm 0.00 in0.0 mm 0.11 in2.8 mm
11:20 PM 50.8°F10.4°C 47.1°F8.4°C 87% 4.0 mph NNW6.4 kmh NNW 17.0 mph27.4 kmh 29.92 in1013.2 mb 0.02 in0.5 mm 0.00 in0.0 mm 0.11 in2.8 mm
11:22 PM 50.7°F10.4°C 47.0°F8.3°C 87% 10.0 mph NNW16.1 kmh NNW 17.0 mph27.4 kmh 29.92 in1013.2 mb 0.02 in0.5 mm 0.00 in0.0 mm 0.11 in2.8 mm
11:23 PM 50.7°F10.4°C 47.0°F8.3°C 87% 11.0 mph NNE17.7 kmh NNE 17.0 mph27.4 kmh 29.92 in1013.2 mb 0.02 in0.5 mm 0.00 in0.0 mm 0.11 in2.8 mm
11:26 PM 50.7°F10.4°C 47.0°F8.3°C 87% 4.0 mph NNW6.4 kmh NNW 17.0 mph27.4 kmh 29.92 in1013.2 mb 0.02 in0.5 mm 0.00 in0.0 mm 0.11 in2.8 mm
11:28 PM 50.6°F10.3°C 46.9°F8.3°C 87% 6.0 mph NNW9.7 kmh NNW 17.0 mph27.4 kmh 29.93 in1013.5 mb 0.02 in0.5 mm 0.00 in0.0 mm 0.11 in2.8 mm
11:30 PM 50.5°F10.3°C 46.8°F8.2°C 87% 2.0 mph NNE3.2 kmh NNE 17.0 mph27.4 kmh 29.92 in1013.2 mb 0.02 in0.5 mm 0.00 in0.0 mm 0.11 in2.8 mm
11:32 PM 50.5°F10.3°C 46.8°F8.2°C 87% 10.0 mph NNW16.1 kmh NNW 17.0 mph27.4 kmh 29.92 in1013.2 mb 0.02 in0.5 mm 0.00 in0.0 mm 0.11 in2.8 mm
11:34 PM 50.4°F10.2°C 46.7°F8.2°C 87% 6.0 mph NNE9.7 kmh NNE 11.0 mph17.7 kmh 29.92 in1013.2 mb 0.02 in0.5 mm 0.00 in0.0 mm 0.11 in2.8 mm
11:36 PM 50.4°F10.2°C 46.7°F8.2°C 87% 5.0 mph N8.0 kmh N 12.0 mph19.3 kmh 29.92 in1013.2 mb 0.02 in0.5 mm 0.00 in0.0 mm 0.11 in2.8 mm
11:38 PM 50.4°F10.2°C 46.7°F8.2°C 87% 3.0 mph NE4.8 kmh NE 12.0 mph19.3 kmh 29.92 in1013.2 mb 0.02 in0.5 mm 0.00 in0.0 mm 0.11 in2.8 mm
11:40 PM 50.3°F10.2°C 46.6°F8.1°C 87% 2.0 mph N3.2 kmh N 12.0 mph19.3 kmh 29.92 in1013.2 mb 0.02 in0.5 mm 0.00 in0.0 mm 0.11 in2.8 mm
11:42 PM 50.3°F10.2°C 46.6°F8.1°C 87% 4.0 mph N6.4 kmh N 12.0 mph19.3 kmh 29.92 in1013.2 mb 0.02 in0.5 mm 0.00 in0.0 mm 0.11 in2.8 mm
11:44 PM 50.3°F10.2°C 46.6°F8.1°C 87% 5.0 mph NNW8.0 kmh NNW 12.0 mph19.3 kmh 29.92 in1013.2 mb 0.02 in0.5 mm 0.00 in0.0 mm 0.11 in2.8 mm
11:46 PM 50.2°F10.1°C 46.5°F8.1°C 87% 6.0 mph N9.7 kmh N 12.0 mph19.3 kmh 29.93 in1013.5 mb 0.02 in0.5 mm 0.00 in0.0 mm 0.11 in2.8 mm
11:48 PM 50.2°F10.1°C 46.5°F8.1°C 87% 6.0 mph NW9.7 kmh NW 12.0 mph19.3 kmh 29.92 in1013.2 mb 0.02 in0.5 mm 0.00 in0.0 mm 0.11 in2.8 mm
11:50 PM 50.1°F10.1°C 46.4°F8.0°C 87% 4.0 mph NNE6.4 kmh NNE 12.0 mph19.3 kmh 29.92 in1013.2 mb 0.02 in0.5 mm 0.00 in0.0 mm 0.11 in2.8 mm
11:52 PM 50.0°F10.0°C 46.3°F7.9°C 87% 3.0 mph N4.8 kmh N 12.0 mph19.3 kmh 29.92 in1013.2 mb 0.02 in0.5 mm 0.00 in0.0 mm 0.11 in2.8 mm
11:54 PM 50.0°F10.0°C 46.3°F7.9°C 87% 8.0 mph N12.9 kmh N 12.0 mph19.3 kmh 29.93 in1013.5 mb 0.02 in0.5 mm 0.00 in0.0 mm 0.11 in2.8 mm
11:56 PM 49.9°F9.9°C 46.2°F7.9°C 87% 2.0 mph NE3.2 kmh NE 12.0 mph19.3 kmh 29.93 in1013.5 mb 0.02 in0.5 mm 0.00 in0.0 mm 0.11 in2.8 mm
11:58 PM 49.9°F9.9°C 46.2°F7.9°C 87% 9.0 mph NW14.5 kmh NW 12.0 mph19.3 kmh 29.92 in1013.2 mb 0.02 in0.5 mm 0.00 in0.0 mm 0.11 in2.8 mm